Observation data for Aiken on 01/18/2019      Previous  Date  Next       Current Mesonet Observations  Soil Data  Daily Summary Page  Observations in Plain Language
KAI1 180600Z 17006KT 02/M02 A3001 RMK A01 T00161022  RH  076%=      5-min Rain = 0
KAI1 180601Z 17006KT 02/M02 A3001 RMK A01 T00151023  RH  076%=      5-min Rain = 0
KAI1 180602Z 17006KT 02/M02 A3001 RMK A01 T00151023  RH  076%=      5-min Rain = 0
KAI1 180603Z 17006KT 01/M02 A3001 RMK A01 T00141022  RH  077%=      5-min Rain = 0
KAI1 180604Z 17006KT 01/M02 A3001 RMK A01 T00141021  RH  078%=      5-min Rain = 0
KAI1 180605Z 18006KT 01/M02 A3001 RMK A01 T00141021  RH  078%=      5-min Rain = 0
KAI1 180606Z 18006KT 01/M02 A3001 RMK A01 T00141021  RH  078%=      5-min Rain = 0
KAI1 180607Z 18007KT 01/M02 A3001 RMK A01 T00141021  RH  078%=      5-min Rain = 0
KAI1 180608Z 19007KT 02/M02 A30 RMK A01 T00161019  RH  078%=      5-min Rain = 0
KAI1 180609Z 19007KT 02/M02 A30 RMK A01 T00181018  RH  077%=      5-min Rain = 0
KAI1 180610Z 19007KT 02/M02 A30 RMK A01 T00211016  RH  077%=      5-min Rain = 0
KAI1 180611Z 19007KT 02/M02 A30 RMK A01 T00231015  RH  076%=      5-min Rain = 0
KAI1 180612Z 20007KT 03/M01 A30 RMK A01 T00251014  RH  076%=      5-min Rain = 0
KAI1 180613Z 20008KT 03/M01 A30 RMK A01 T00281012  RH  075%=      5-min Rain = 0
KAI1 180614Z 20008KT 03/M01 A30 RMK A01 T00301012  RH  074%=      5-min Rain = 0
KAI1 180615Z 20008KT 03/M01 A30 RMK A01 T00311013  RH  073%=      5-min Rain = 0
KAI1 180616Z 20007KT 03/M01 A30 RMK A01 T00311014  RH  072%=      5-min Rain = 0
KAI1 180617Z 20007KT 03/M02 A30 RMK A01 T00311015  RH  072%=      5-min Rain = 0
KAI1 180618Z 20007KT 03/M02 A30 RMK A01 T00311015  RH  072%=      5-min Rain = 0
KAI1 180619Z 20007KT 03/M02 A30 RMK A01 T00301016  RH  072%=      5-min Rain = 0
KAI1 180620Z 20007KT 03/M02 A30 RMK A01 T00301016  RH  072%=      5-min Rain = 0
KAI1 180621Z 20007KT 03/M02 A30 RMK A01 T00291017  RH  072%=      5-min Rain = 0
KAI1 180622Z 20007KT 03/M02 A30 RMK A01 T00291016  RH  072%=      5-min Rain = 0
KAI1 180623Z 20007KT 03/M02 A30 RMK A01 T00291016  RH  072%=      5-min Rain = 0
KAI1 180624Z 20007KT 03/M02 A30 RMK A01 T00291017  RH  072%=      5-min Rain = 0
KAI1 180625Z 20007KT 03/M02 A30 RMK A01 T00281017  RH  072%=      5-min Rain = 0
KAI1 180626Z 20007KT 03/M02 A30 RMK A01 T00281017  RH  072%=      5-min Rain = 0
KAI1 180627Z 20007KT 03/M02 A30 RMK A01 T00281018  RH  072%=      5-min Rain = 0
KAI1 180628Z 20007KT 03/M02 A30 RMK A01 T00281018  RH  072%=      5-min Rain = 0
KAI1 180629Z 20007KT 03/M02 A30 RMK A01 T00271018  RH  072%=      5-min Rain = 0
KAI1 180630Z 20007KT 03/M02 A30 RMK A01 T00261019  RH  072%=      5-min Rain = 0
KAI1 180631Z 20008KT 03/M02 A30 RMK A01 T00261018  RH  072%=      5-min Rain = 0
KAI1 180632Z 20008KT 03/M02 A30 RMK A01 T00261018  RH  073%=      5-min Rain = 0
KAI1 180633Z 20008KT 03/M02 A30 RMK A01 T00271018  RH  073%=      5-min Rain = 0
KAI1 180634Z 20008KT 03/M02 A30 RMK A01 T00281017  RH  072%=      5-min Rain = 0
KAI1 180635Z 20009KT 03/M02 A2999 RMK A01 T00311015  RH  072%=      5-min Rain = 0
KAI1 180636Z 19009KT 03/M02 A2999 RMK A01 T00331015  RH  071%=      5-min Rain = 0
KAI1 180637Z 20009KT 03/M02 A2999 RMK A01 T00341016  RH  070%=      5-min Rain = 0
KAI1 180638Z 20008KT 03/M02 A2999 RMK A01 T00341016  RH  070%=      5-min Rain = 0
KAI1 180639Z 20008KT 03/M02 A2999 RMK A01 T00331016  RH  070%=      5-min Rain = 0
KAI1 180640Z 20008KT 03/M02 A2999 RMK A01 T00331017  RH  070%=      5-min Rain = 0
KAI1 180641Z 20008KT 03/M02 A2999 RMK A01 T00331017  RH  070%=      5-min Rain = 0
KAI1 180642Z 20008KT 03/M02 A2999 RMK A01 T00321017  RH  070%=      5-min Rain = 0
KAI1 180643Z 20008KT 03/M02 A2999 RMK A01 T00311018  RH  070%=      5-min Rain = 0
KAI1 180644Z 19008KT 03/M02 A2999 RMK A01 T00311018  RH  070%=      5-min Rain = 0
KAI1 180645Z 20008KT 03/M02 A2999 RMK A01 T00311018  RH  070%=      5-min Rain = 0
KAI1 180646Z 20008KT 03/M02 A2999 RMK A01 T00311018  RH  070%=      5-min Rain = 0
KAI1 180647Z 20008KT 03/M02 A2999 RMK A01 T00311018  RH  070%=      5-min Rain = 0
KAI1 180648Z 20008KT 03/M02 A2999 RMK A01 T00301019  RH  070%=      5-min Rain = 0
KAI1 180649Z 19008KT 03/M02 A2999 RMK A01 T00291019  RH  071%=      5-min Rain = 0
KAI1 180650Z 19007KT 03/M02 A2999 RMK A01 T00281019  RH  071%=      5-min Rain = 0
KAI1 180651Z 19007KT 03/M02 A2999 RMK A01 T00271021  RH  071%=      5-min Rain = 0
KAI1 180652Z 19007KT 03/M02 A2999 RMK A01 T00251023  RH  071%=      5-min Rain = 0
KAI1 180653Z 19007KT 02/M03 A2999 RMK A01 T00221025  RH  071%=      5-min Rain = 0
KAI1 180654Z 19007KT 02/M03 A2999 RMK A01 T00191026  RH  072%=      5-min Rain = 0
KAI1 180655Z 19007KT 02/M03 A2999 RMK A01 T00181025  RH  073%=      5-min Rain = 0
KAI1 180656Z 19007KT 02/M03 A2999 RMK A01 T00171025  RH  074%=      5-min Rain = 0
KAI1 180657Z 19007KT 02/M03 A2999 RMK A01 T00171025  RH  074%=      5-min Rain = 0
KAI1 180658Z 20007KT 02/M02 A2999 RMK A01 T00181024  RH  074%=      5-min Rain = 0
KAI1 180659Z 20007KT 02/M02 A2999 RMK A01 T00181023  RH  074%=      5-min Rain = 0
KAI1 180700Z 20007KT 02/M02 A30 RMK A01 T00191023  RH  074%=      5-min Rain = 0
KAI1 180701Z 20008KT 02/M02 A30 RMK A01 T00191022  RH  074%=      5-min Rain = 0
KAI1 180702Z 20008KT 02/M02 A2999 RMK A01 T00201022  RH  074%=      5-min Rain = 0
KAI1 180703Z 20007KT 02/M02 A30 RMK A01 T00211022  RH  073%=      5-min Rain = 0
KAI1 180704Z 20008KT 02/M02 A2999 RMK A01 T00211022  RH  073%=      5-min Rain = 0
KAI1 180705Z 20008KT 02/M02 A2999 RMK A01 T00211022  RH  073%=      5-min Rain = 0
KAI1 180706Z 20008KT 02/M02 A2999 RMK A01 T00211022  RH  073%=      5-min Rain = 0
KAI1 180707Z 20008KT 02/M02 A2999 RMK A01 T00211022  RH  073%=      5-min Rain = 0
KAI1 180708Z 20008KT 02/M02 A2999 RMK A01 T00211022  RH  073%=      5-min Rain = 0
KAI1 180709Z 20008KT 02/M02 A2999 RMK A01 T00221021  RH  073%=      5-min Rain = 0
KAI1 180710Z 21008KT 02/M02 A2999 RMK A01 T00221021  RH  073%=      5-min Rain = 0
KAI1 180711Z 21009KT 02/M02 A2999 RMK A01 T00221021  RH  073%=      5-min Rain = 0
KAI1 180712Z 21009KT 02/M02 A2999 RMK A01 T00211021  RH  073%=      5-min Rain = 0
KAI1 180713Z 21009KT 02/M02 A2999 RMK A01 T00211021  RH  073%=      5-min Rain = 0
KAI1 180714Z 21009KT 02/M02 A2999 RMK A01 T00221020  RH  074%=      5-min Rain = 0
KAI1 180715Z 21009KT 02/M02 A2999 RMK A01 T00221020  RH  074%=      5-min Rain = 0
KAI1 180716Z 21009KT 02/M02 A2999 RMK A01 T00231019  RH  074%=      5-min Rain = 0
KAI1 180717Z 21009KT 02/M02 A2999 RMK A01 T00231019  RH  073%=      5-min Rain = 0
KAI1 180718Z 21009KT 02/M02 A2999 RMK A01 T00231019  RH  073%=      5-min Rain = 0
KAI1 180719Z 21009KT 02/M02 A2999 RMK A01 T00231019  RH  074%=      5-min Rain = 0
KAI1 180720Z 21009KT 02/M02 A2999 RMK A01 T00231019  RH  074%=      5-min Rain = 0
KAI1 180721Z 21009KT 02/M02 A2999 RMK A01 T00241018  RH  074%=      5-min Rain = 0
KAI1 180722Z 21009KT 02/M02 A2999 RMK A01 T00231018  RH  074%=      5-min Rain = 0
KAI1 180723Z 21009KT 02/M02 A2999 RMK A01 T00231018  RH  074%=      5-min Rain = 0
KAI1 180724Z 21009KT 02/M02 A2999 RMK A01 T00221018  RH  075%=      5-min Rain = 0
KAI1 180725Z 21009KT 02/M02 A2999 RMK A01 T00221017  RH  075%=      5-min Rain = 0
KAI1 180726Z 21009KT 02/M02 A2999 RMK A01 T00231017  RH  075%=      5-min Rain = 0
KAI1 180727Z 22009KT 02/M02 A2999 RMK A01 T00241016  RH  075%=      5-min Rain = 0
KAI1 180728Z 23008KT 02/M02 A2999 RMK A01 T00241015  RH  075%=      5-min Rain = 0
KAI1 180729Z 23009KT 03/M02 A2999 RMK A01 T00251015  RH  075%=      5-min Rain = 0
KAI1 180730Z 22010KT 02/M02 A2998 RMK A01 T00241015  RH  075%=      5-min Rain = 0
KAI1 180731Z 21011KT 02/M02 A2998 RMK A01 T00241015  RH  075%=      5-min Rain = 0
KAI1 180732Z 22011KT 03/M01 A2998 RMK A01 T00261013  RH  075%=      5-min Rain = 0
KAI1 180733Z 22011KT 03/M01 A2998 RMK A01 T00281012  RH  075%=      5-min Rain = 0
KAI1 180734Z 22011KT 03/M01 A2998 RMK A01 T00301011  RH  074%=      5-min Rain = 0
KAI1 180735Z 22011KT 03/M01 A2998 RMK A01 T00311011  RH  074%=      5-min Rain = 0
KAI1 180736Z 22011KT 03/M01 A2998 RMK A01 T00321011  RH  073%=      5-min Rain = 0
KAI1 180737Z 22011KT 03/M01 A2998 RMK A01 T00331011  RH  073%=      5-min Rain = 0
KAI1 180738Z 22010KT 03/M01 A2998 RMK A01 T00341011  RH  073%=      5-min Rain = 0
KAI1 180739Z 22011KT 03/M01 A2998 RMK A01 T00341010  RH  073%=      5-min Rain = 0
KAI1 180740Z 22011KT 03/M01 A2998 RMK A01 T00341010  RH  073%=      5-min Rain = 0
KAI1 180741Z 22011KT 04/M01 A2998 RMK A01 T00361010  RH  072%=      5-min Rain = 0
KAI1 180742Z 22011KT 04/M01 A2997 RMK A01 T00361009  RH  072%=      5-min Rain = 0
KAI1 180743Z 22011KT 04/M01 A2997 RMK A01 T00371009  RH  072%=      5-min Rain = 0
KAI1 180744Z 22011KT 04/M01 A2997 RMK A01 T00391009  RH  071%=      5-min Rain = 0
KAI1 180745Z 22012KT 04/M01 A2997 RMK A01 T00391009  RH  071%=      5-min Rain = 0
KAI1 180746Z 22011KT 04/M01 A2997 RMK A01 T00401008  RH  071%=      5-min Rain = 0
KAI1 180747Z 22012KT 04/M01 A2997 RMK A01 T00401009  RH  071%=      5-min Rain = 0
KAI1 180748Z 22012KT 04/M01 A2997 RMK A01 T00411008  RH  070%=      5-min Rain = 0
KAI1 180749Z 22011KT 04/M01 A2997 RMK A01 T00421008  RH  070%=      5-min Rain = 0
KAI1 180750Z 22011KT 04/M01 A2997 RMK A01 T00431008  RH  070%=      5-min Rain = 0
KAI1 180751Z 22011KT 04/M01 A2997 RMK A01 T00431008  RH  070%=      5-min Rain = 0
KAI1 180752Z 22011KT 04/M01 A2997 RMK A01 T00431008  RH  070%=      5-min Rain = 0
KAI1 180753Z 22011KT 04/M01 A2996 RMK A01 T00441007  RH  070%=      5-min Rain = 0
KAI1 180754Z 22012KT 05/M01 A2996 RMK A01 T00451006  RH  069%=      5-min Rain = 0
KAI1 180755Z 22011KT 05/M01 A2996 RMK A01 T00461006  RH  069%=      5-min Rain = 0
KAI1 180756Z 22012KT 05/M01 A2996 RMK A01 T00471006  RH  069%=      5-min Rain = 0
KAI1 180757Z 22012KT 05/M01 A2996 RMK A01 T00481005  RH  068%=      5-min Rain = 0
KAI1 180758Z 22012KT 05/M01 A2996 RMK A01 T00491005  RH  068%=      5-min Rain = 0
KAI1 180759Z 22012KT 05/M00 A2996 RMK A01 T00501004  RH  068%=      5-min Rain = 0
KAI1 180800Z 22012KT 05/M00 A2996 RMK A01 T00511004  RH  068%=      5-min Rain = 0
KAI1 180801Z 22013KT 05/M00 A2996 RMK A01 T00521004  RH  067%=      5-min Rain = 0
KAI1 180802Z 22011KT 05/M00 A2996 RMK A01 T00531004  RH  067%=      5-min Rain = 0
KAI1 180803Z 22012KT 05/M00 A2996 RMK A01 T00531004  RH  067%=      5-min Rain = 0
KAI1 180804Z 22012KT 05/M00 A2996 RMK A01 T00531004  RH  067%=      5-min Rain = 0
KAI1 180805Z 22012KT 05/M00 A2996 RMK A01 T00531004  RH  067%=      5-min Rain = 0
KAI1 180806Z 22012KT 05/M00 A2996 RMK A01 T00541004  RH  066%=      5-min Rain = 0
KAI1 180807Z 22012KT 06/M00 A2996 RMK A01 T00551003  RH  066%=      5-min Rain = 0
KAI1 180808Z 21012KT 06/M00 A2996 RMK A01 T00561003  RH  066%=      5-min Rain = 0
KAI1 180809Z 21012KT 06/M00 A2995 RMK A01 T00561004  RH  065%=      5-min Rain = 0
KAI1 180810Z 22012KT 06/M00 A2995 RMK A01 T00571004  RH  065%=      5-min Rain = 0
KAI1 180811Z 22011KT 06/M00 A2995 RMK A01 T00571003  RH  065%=      5-min Rain = 0
KAI1 180812Z 22012KT 06/M00 A2995 RMK A01 T00561004  RH  065%=      5-min Rain = 0
KAI1 180813Z 22011KT 06/M00 A2995 RMK A01 T00551004  RH  066%=      5-min Rain = 0
KAI1 180814Z 22010KT 06/M00 A2995 RMK A01 T00551004  RH  066%=      5-min Rain = 0
KAI1 180815Z 22011KT 06/M00 A2995 RMK A01 T00551004  RH  066%=      5-min Rain = 0
KAI1 180816Z 21010KT 05/M01 A2995 RMK A01 T00541005  RH  066%=      5-min Rain = 0
KAI1 180817Z 22011KT 05/M01 A2995 RMK A01 T00541005  RH  066%=      5-min Rain = 0
KAI1 180818Z 22010KT 05/M00 A2995 RMK A01 T00541004  RH  066%=      5-min Rain = 0
KAI1 180819Z 22009KT 05/M00 A2995 RMK A01 T00541004  RH  066%=      5-min Rain = 0
KAI1 180820Z 22009KT 05/M01 A2995 RMK A01 T00531005  RH  066%=      5-min Rain = 0
KAI1 180821Z 22010KT 05/M01 A2995 RMK A01 T00531005  RH  066%=      5-min Rain = 0
KAI1 180822Z 22009KT 05/M01 A2995 RMK A01 T00511006  RH  067%=      5-min Rain = 0
KAI1 180823Z 22010KT 05/M01 A2995 RMK A01 T00501006  RH  067%=      5-min Rain = 0
KAI1 180824Z 22010KT 05/M01 A2995 RMK A01 T00501005  RH  067%=      5-min Rain = 0
KAI1 180825Z 22009KT 05/M01 A2995 RMK A01 T00501005  RH  067%=      5-min Rain = 0
KAI1 180826Z 22009KT 05/M01 A2995 RMK A01 T00501005  RH  067%=      5-min Rain = 0
KAI1 180827Z 22009KT 05/M01 A2995 RMK A01 T00501006  RH  067%=      5-min Rain = 0
KAI1 180828Z 22008KT 05/M01 A2995 RMK A01 T00491006  RH  068%=      5-min Rain = 0
KAI1 180829Z 22008KT 05/M01 A2995 RMK A01 T00491006  RH  068%=      5-min Rain = 0
KAI1 180830Z 22008KT 05/M01 A2995 RMK A01 T00481006  RH  068%=      5-min Rain = 0
KAI1 180831Z 22008KT 05/M01 A2995 RMK A01 T00481006  RH  068%=      5-min Rain = 0
KAI1 180832Z 22009KT 05/M01 A2995 RMK A01 T00471006  RH  068%=      5-min Rain = 0
KAI1 180833Z 22009KT 05/M01 A2995 RMK A01 T00471006  RH  068%=      5-min Rain = 0
KAI1 180834Z 22009KT 05/M01 A2995 RMK A01 T00471006  RH  068%=      5-min Rain = 0
KAI1 180835Z 22009KT 05/M01 A2995 RMK A01 T00461007  RH  068%=      5-min Rain = 0
KAI1 180836Z 22009KT 05/M01 A2995 RMK A01 T00461007  RH  069%=      5-min Rain = 0
KAI1 180837Z 22009KT 05/M01 A2995 RMK A01 T00461006  RH  069%=      5-min Rain = 0
KAI1 180838Z 22009KT 05/M01 A2995 RMK A01 T00461007  RH  069%=      5-min Rain = 0
KAI1 180839Z 22010KT 05/M01 A2995 RMK A01 T00461007  RH  069%=      5-min Rain = 0
KAI1 180840Z 22010KT 05/M01 A2995 RMK A01 T00461007  RH  069%=      5-min Rain = 0
KAI1 180841Z 22010KT 05/M01 A2995 RMK A01 T00461006  RH  069%=      5-min Rain = 0
KAI1 180842Z 22010KT 05/M01 A2995 RMK A01 T00461007  RH  068%=      5-min Rain = 0
KAI1 180843Z 22009KT 05/M01 A2995 RMK A01 T00461007  RH  068%=      5-min Rain = 0
KAI1 180844Z 22010KT 05/M01 A2995 RMK A01 T00461007  RH  068%=      5-min Rain = 0
KAI1 180845Z 22010KT 05/M01 A2995 RMK A01 T00461007  RH  068%=      5-min Rain = 0
KAI1 180846Z 22009KT 05/M01 A2995 RMK A01 T00461007  RH  069%=      5-min Rain = 0
KAI1 180847Z 22010KT 05/M01 A2995 RMK A01 T00451007  RH  069%=      5-min Rain = 0
KAI1 180848Z 22010KT 04/M01 A2995 RMK A01 T00441008  RH  069%=      5-min Rain = 0
KAI1 180849Z 22010KT 04/M01 A2995 RMK A01 T00441008  RH  069%=      5-min Rain = 0
KAI1 180850Z 22010KT 04/M01 A2995 RMK A01 T00441007  RH  069%=      5-min Rain = 0
KAI1 180851Z 22010KT 04/M01 A2995 RMK A01 T00431008  RH  069%=      5-min Rain = 0
KAI1 180852Z 22010KT 04/M01 A2995 RMK A01 T00431008  RH  069%=      5-min Rain = 0
KAI1 180853Z 22010KT 04/M01 A2995 RMK A01 T00431008  RH  070%=      5-min Rain = 0
KAI1 180854Z 22010KT 04/M01 A2994 RMK A01 T00431008  RH  070%=      5-min Rain = 0
KAI1 180855Z 22009KT 04/M01 A2994 RMK A01 T00421008  RH  070%=      5-min Rain = 0
KAI1 180856Z 22009KT 04/M01 A2994 RMK A01 T00421009  RH  070%=      5-min Rain = 0
KAI1 180857Z 22009KT 04/M01 A2994 RMK A01 T00411009  RH  070%=      5-min Rain = 0
KAI1 180858Z 21009KT 04/M01 A2994 RMK A01 T00411009  RH  070%=      5-min Rain = 0
KAI1 180859Z 21009KT 04/M01 A2994 RMK A01 T00401009  RH  070%=      5-min Rain = 0
KAI1 180900Z 21009KT 04/M01 A2994 RMK A01 T00401009  RH  070%=      5-min Rain = 0
KAI1 180901Z 21010KT 04/M01 A2994 RMK A01 T00391009  RH  071%=      5-min Rain = 0
KAI1 180902Z 21009KT 04/M01 A2994 RMK A01 T00391009  RH  071%=      5-min Rain = 0
KAI1 180903Z 21009KT 04/M01 A2994 RMK A01 T00391009  RH  071%=      5-min Rain = 0
KAI1 180904Z 21009KT 04/M01 A2994 RMK A01 T00381010  RH  071%=      5-min Rain = 0
KAI1 180905Z 21008KT 04/M01 A2994 RMK A01 T00381010  RH  071%=      5-min Rain = 0
KAI1 180906Z 21008KT 04/M01 A2994 RMK A01 T00371010  RH  071%=      5-min Rain = 0
KAI1 180907Z 21008KT 04/M01 A2993 RMK A01 T00361011  RH  071%=      5-min Rain = 0
KAI1 180908Z 20008KT 04/M01 A2993 RMK A01 T00361010  RH  072%=      5-min Rain = 0
KAI1 180909Z 21008KT 04/M01 A2993 RMK A01 T00351010  RH  072%=      5-min Rain = 0
KAI1 180910Z 20008KT 04/M01 A2993 RMK A01 T00351011  RH  072%=      5-min Rain = 0
KAI1 180911Z 20007KT 03/M01 A2993 RMK A01 T00341011  RH  072%=      5-min Rain = 0
KAI1 180912Z 20008KT 03/M01 A2993 RMK A01 T00341011  RH  072%=      5-min Rain = 0
KAI1 180913Z 20008KT 03/M01 A2993 RMK A01 T00331012  RH  072%=      5-min Rain = 0
KAI1 180914Z 20008KT 03/M01 A2993 RMK A01 T00331011  RH  073%=      5-min Rain = 0
KAI1 180915Z 20008KT 03/M01 A2993 RMK A01 T00321012  RH  073%=      5-min Rain = 0
KAI1 180916Z 20008KT 03/M01 A2993 RMK A01 T00321012  RH  073%=      5-min Rain = 0
KAI1 180917Z 20008KT 03/M01 A2993 RMK A01 T00321012  RH  073%=      5-min Rain = 0
KAI1 180918Z 20008KT 03/M01 A2993 RMK A01 T00321012  RH  073%=      5-min Rain = 0
KAI1 180919Z 20008KT 03/M01 A2992 RMK A01 T00321012  RH  073%=      5-min Rain = 0
KAI1 180920Z 20007KT 03/M01 A2992 RMK A01 T00301013  RH  073%=      5-min Rain = 0
KAI1 180921Z 20008KT 03/M01 A2992 RMK A01 T00291013  RH  074%=      5-min Rain = 0
KAI1 180922Z 20008KT 03/M01 A2992 RMK A01 T00291013  RH  074%=      5-min Rain = 0
KAI1 180923Z 20008KT 03/M01 A2992 RMK A01 T00281014  RH  074%=      5-min Rain = 0
KAI1 180924Z 21008KT 03/M01 A2993 RMK A01 T00271014  RH  074%=      5-min Rain = 0
KAI1 180925Z 21008KT 03/M01 A2993 RMK A01 T00261014  RH  075%=      5-min Rain = 0
KAI1 180926Z 21008KT 03/M02 A2993 RMK A01 T00261015  RH  075%=      5-min Rain = 0
KAI1 180927Z 21008KT 03/M02 A2993 RMK A01 T00251015  RH  075%=      5-min Rain = 0
KAI1 180928Z 21008KT 02/M02 A2993 RMK A01 T00231016  RH  075%=      5-min Rain = 0
KAI1 180929Z 20009KT 02/M02 A2993 RMK A01 T00231016  RH  076%=      5-min Rain = 0
KAI1 180930Z 21008KT 02/M02 A2992 RMK A01 T00221016  RH  076%=      5-min Rain = 0
KAI1 180931Z 21008KT 02/M02 A2992 RMK A01 T00211016  RH  076%=      5-min Rain = 0
KAI1 180932Z 21008KT 02/M02 A2992 RMK A01 T00211016  RH  077%=      5-min Rain = 0
KAI1 180933Z 21008KT 02/M02 A2992 RMK A01 T00211016  RH  077%=      5-min Rain = 0
KAI1 180934Z 21008KT 02/M02 A2992 RMK A01 T00201016  RH  077%=      5-min Rain = 0
KAI1 180935Z 21008KT 02/M02 A2992 RMK A01 T00201016  RH  077%=      5-min Rain = 0
KAI1 180936Z 21009KT 02/M02 A2992 RMK A01 T00191017  RH  077%=      5-min Rain = 0
KAI1 180937Z 21009KT 02/M02 A2992 RMK A01 T00181017  RH  077%=      5-min Rain = 0
KAI1 180938Z 21009KT 02/M02 A2992 RMK A01 T00181017  RH  078%=      5-min Rain = 0
KAI1 180939Z 21009KT 02/M02 A2992 RMK A01 T00181017  RH  078%=      5-min Rain = 0
KAI1 180940Z 21009KT 02/M02 A2992 RMK A01 T00181017  RH  078%=      5-min Rain = 0
KAI1 180941Z 21009KT 02/M02 A2992 RMK A01 T00181016  RH  078%=      5-min Rain = 0
KAI1 180942Z 21009KT 02/M02 A2992 RMK A01 T00181016  RH  078%=      5-min Rain = 0
KAI1 180943Z 21009KT 02/M02 A2992 RMK A01 T00191015  RH  078%=      5-min Rain = 0
KAI1 180944Z 21010KT 02/M02 A2992 RMK A01 T00191015  RH  078%=      5-min Rain = 0
KAI1 180945Z 21010KT 02/M01 A2992 RMK A01 T00201014  RH  078%=      5-min Rain = 0
KAI1 180946Z 21010KT 02/M01 A2992 RMK A01 T00211014  RH  078%=      5-min Rain = 0
KAI1 180947Z 21010KT 02/M01 A2992 RMK A01 T00221013  RH  077%=      5-min Rain = 0
KAI1 180948Z 21010KT 02/M01 A2992 RMK A01 T00231013  RH  077%=      5-min Rain = 0
KAI1 180949Z 21010KT 02/M01 A2992 RMK A01 T00231013  RH  077%=      5-min Rain = 0
KAI1 180950Z 21010KT 02/M01 A2992 RMK A01 T00241013  RH  077%=      5-min Rain = 0
KAI1 180951Z 22010KT 03/M01 A2992 RMK A01 T00251013  RH  076%=      5-min Rain = 0
KAI1 180952Z 22010KT 03/M01 A2992 RMK A01 T00251013  RH  076%=      5-min Rain = 0
KAI1 180953Z 21010KT 03/M01 A2992 RMK A01 T00261013  RH  076%=      5-min Rain = 0
KAI1 180954Z 21010KT 03/M01 A2991 RMK A01 T00261013  RH  076%=      5-min Rain = 0
KAI1 180955Z 21010KT 03/M01 A2991 RMK A01 T00261013  RH  076%=      5-min Rain = 0
KAI1 180956Z 21010KT 03/M01 A2991 RMK A01 T00261013  RH  076%=      5-min Rain = 0
KAI1 180957Z 22010KT 03/M01 A2991 RMK A01 T00261012  RH  076%=      5-min Rain = 0
KAI1 180958Z 22010KT 03/M01 A2992 RMK A01 T00271013  RH  075%=      5-min Rain = 0
KAI1 180959Z 22010KT 03/M01 A2992 RMK A01 T00271013  RH  075%=      5-min Rain = 0
KAI1 181000Z 22010KT 03/M01 A2992 RMK A01 T00261013  RH  075%=      5-min Rain = 0
KAI1 181001Z 22010KT 03/M01 A2992 RMK A01 T00261013  RH  075%=      5-min Rain = 0
KAI1 181002Z 22010KT 03/M01 A2991 RMK A01 T00261013  RH  075%=      5-min Rain = 0
KAI1 181003Z 22009KT 03/M01 A2991 RMK A01 T00251013  RH  076%=      5-min Rain = 0
KAI1 181004Z 22009KT 03/M01 A2991 RMK A01 T00251013  RH  076%=      5-min Rain = 0
KAI1 181005Z 22008KT 02/M01 A2991 RMK A01 T00241014  RH  076%=      5-min Rain = 0
KAI1 181006Z 22008KT 02/M01 A2991 RMK A01 T00241014  RH  076%=      5-min Rain = 0
KAI1 181007Z 22009KT 02/M01 A2991 RMK A01 T00241014  RH  076%=      5-min Rain = 0
KAI1 181008Z 21009KT 02/M01 A299 RMK A01 T00241014  RH  076%=      5-min Rain = 0
KAI1 181009Z 22009KT 02/M01 A299 RMK A01 T00241014  RH  076%=      5-min Rain = 0
KAI1 181010Z 22008KT 02/M01 A299 RMK A01 T00241013  RH  076%=      5-min Rain = 0
KAI1 181011Z 22008KT 02/M01 A299 RMK A01 T00241014  RH  076%=      5-min Rain = 0
KAI1 181012Z 22008KT 02/M01 A299 RMK A01 T00241013  RH  076%=      5-min Rain = 0
KAI1 181013Z 23007KT 02/M01 A299 RMK A01 T00241013  RH  076%=      5-min Rain = 0
KAI1 181014Z 23008KT 02/M01 A299 RMK A01 T00241014  RH  076%=      5-min Rain = 0
KAI1 181015Z 24008KT 02/M02 A299 RMK A01 T00221015  RH  077%=      5-min Rain = 0
KAI1 181016Z 23007KT 02/M02 A299 RMK A01 T00211015  RH  077%=      5-min Rain = 0
KAI1 181017Z 22008KT 02/M02 A299 RMK A01 T00201015  RH  077%=      5-min Rain = 0
KAI1 181018Z 23007KT 02/M02 A299 RMK A01 T00191016  RH  078%=      5-min Rain = 0
KAI1 181019Z 23008KT 02/M02 A299 RMK A01 T00181016  RH  078%=      5-min Rain = 0
KAI1 181020Z 22008KT 02/M02 A299 RMK A01 T00171016  RH  078%=      5-min Rain = 0
KAI1 181021Z 22008KT 02/M02 A299 RMK A01 T00171016  RH  079%=      5-min Rain = 0
KAI1 181022Z 22008KT 02/M02 A299 RMK A01 T00171016  RH  079%=      5-min Rain = 0
KAI1 181023Z 22008KT 02/M02 A299 RMK A01 T00161017  RH  079%=      5-min Rain = 0
KAI1 181024Z 22008KT 02/M02 A299 RMK A01 T00161017  RH  079%=      5-min Rain = 0
KAI1 181025Z 22008KT 02/M02 A2989 RMK A01 T00151017  RH  079%=      5-min Rain = 0
KAI1 181026Z 22007KT 01/M02 A2989 RMK A01 T00141018  RH  079%=      5-min Rain = 0
KAI1 181027Z 23007KT 01/M02 A2989 RMK A01 T00131018  RH  080%=      5-min Rain = 0
KAI1 181028Z 23007KT 01/M02 A2989 RMK A01 T00121018  RH  080%=      5-min Rain = 0
KAI1 181029Z 23007KT 01/M02 A2989 RMK A01 T00111019  RH  080%=      5-min Rain = 0
KAI1 181030Z 23008KT 01/M02 A2989 RMK A01 T00111019  RH  081%=      5-min Rain = 0
KAI1 181031Z 23008KT 01/M02 A2989 RMK A01 T00101019  RH  081%=      5-min Rain = 0
KAI1 181032Z 22008KT 01/M02 A2989 RMK A01 T00101019  RH  081%=      5-min Rain = 0
KAI1 181033Z 22008KT 01/M02 A2989 RMK A01 T00101019  RH  082%=      5-min Rain = 0
KAI1 181034Z 22009KT 01/M02 A2989 RMK A01 T00091019  RH  082%=      5-min Rain = 0
KAI1 181035Z 23009KT 01/M02 A2989 RMK A01 T00091019  RH  082%=      5-min Rain = 0
KAI1 181036Z 22009KT 01/M02 A2989 RMK A01 T00101018  RH  082%=      5-min Rain = 0
KAI1 181037Z 22009KT 01/M02 A2989 RMK A01 T00111018  RH  081%=      5-min Rain = 0
KAI1 181038Z 23008KT 01/M02 A2989 RMK A01 T00111018  RH  081%=      5-min Rain = 0
KAI1 181039Z 23008KT 01/M02 A2989 RMK A01 T00111018  RH  081%=      5-min Rain = 0
KAI1 181040Z 23008KT 01/M02 A2989 RMK A01 T00101019  RH  081%=      5-min Rain = 0
KAI1 181041Z 23008KT 01/M02 A2989 RMK A01 T00091019  RH  082%=      5-min Rain = 0
KAI1 181042Z 23009KT 01/M02 A2989 RMK A01 T00091019  RH  082%=      5-min Rain = 0
KAI1 181043Z 23009KT 01/M02 A2988 RMK A01 T00091019  RH  082%=      5-min Rain = 0
KAI1 181044Z 22008KT 01/M02 A2988 RMK A01 T00091019  RH  082%=      5-min Rain = 0
KAI1 181045Z 22008KT 01/M02 A2988 RMK A01 T00101019  RH  081%=      5-min Rain = 0
KAI1 181046Z 22009KT 01/M02 A2988 RMK A01 T00091019  RH  081%=      5-min Rain = 0
KAI1 181047Z 22009KT 01/M02 A2988 RMK A01 T00091019  RH  081%=      5-min Rain = 0
KAI1 181048Z 22009KT 01/M02 A2988 RMK A01 T00081020  RH  082%=      5-min Rain = 0
KAI1 181049Z 22009KT 01/M02 A2988 RMK A01 T00081020  RH  082%=      5-min Rain = 0
KAI1 181050Z 22009KT 01/M02 A2988 RMK A01 T00071020  RH  082%=      5-min Rain = 0
KAI1 181051Z 22009KT 01/M02 A2988 RMK A01 T00071020  RH  082%=      5-min Rain = 0
KAI1 181052Z 22009KT 01/M02 A2987 RMK A01 T00071020  RH  082%=      5-min Rain = 0
KAI1 181053Z 22009KT 01/M02 A2988 RMK A01 T00081019  RH  082%=      5-min Rain = 0
KAI1 181054Z 22009KT 01/M02 A2987 RMK A01 T00081019  RH  082%=      5-min Rain = 0
KAI1 181055Z 22009KT 01/M02 A2987 RMK A01 T00091019  RH  082%=      5-min Rain = 0
KAI1 181056Z 22008KT 01/M02 A2988 RMK A01 T00091019  RH  082%=      5-min Rain = 0
KAI1 181057Z 22009KT 01/M02 A2987 RMK A01 T00091019  RH  082%=      5-min Rain = 0
KAI1 181058Z 23009KT 01/M02 A2987 RMK A01 T00091019  RH  082%=      5-min Rain = 0
KAI1 181059Z 22009KT 01/M02 A2987 RMK A01 T00091019  RH  082%=      5-min Rain = 0
KAI1 181100Z 23009KT 01/M02 A2987 RMK A01 T00091019  RH  082%=      5-min Rain = 0
KAI1 181101Z 23008KT 01/M02 A2987 RMK A01 T00081019  RH  082%=      5-min Rain = 0
KAI1 181102Z 23008KT 01/M02 A2987 RMK A01 T00071020  RH  082%=      5-min Rain = 0
KAI1 181103Z 23008KT 01/M02 A2987 RMK A01 T00071020  RH  082%=      5-min Rain = 0
KAI1 181104Z 23008KT 01/M02 A2987 RMK A01 T00061020  RH  083%=      5-min Rain = 0
KAI1 181105Z 23008KT 01/M02 A2987 RMK A01 T00061020  RH  083%=      5-min Rain = 0
KAI1 181106Z 23008KT 01/M02 A2987 RMK A01 T00061020  RH  083%=      5-min Rain = 0
KAI1 181107Z 23007KT 01/M02 A2987 RMK A01 T00061019  RH  083%=      5-min Rain = 0
KAI1 181108Z 23008KT 01/M02 A2987 RMK A01 T00061019  RH  083%=      5-min Rain = 0
KAI1 181109Z 23008KT 01/M02 A2987 RMK A01 T00071019  RH  083%=      5-min Rain = 0
KAI1 181110Z 23007KT 01/M02 A2987 RMK A01 T00071018  RH  083%=      5-min Rain = 0
KAI1 181111Z 23008KT 01/M02 A2986 RMK A01 T00071018  RH  083%=      5-min Rain = 0
KAI1 181112Z 23008KT 01/M02 A2986 RMK A01 T00081017  RH  083%=      5-min Rain = 0
KAI1 181113Z 23009KT 01/M02 A2986 RMK A01 T00081017  RH  083%=      5-min Rain = 0
KAI1 181114Z 23008KT 01/M02 A2986 RMK A01 T00091016  RH  083%=      5-min Rain = 0
KAI1 181115Z 23008KT 01/M02 A2986 RMK A01 T00101015  RH  083%=      5-min Rain = 0
KAI1 181116Z 22009KT 01/M02 A2986 RMK A01 T00101015  RH  083%=      5-min Rain = 0
KAI1 181117Z 22009KT 01/M01 A2986 RMK A01 T00121014  RH  083%=      5-min Rain = 0
KAI1 181118Z 22009KT 01/M01 A2985 RMK A01 T00131014  RH  082%=      5-min Rain = 0
KAI1 181119Z 22009KT 01/M01 A2985 RMK A01 T00131014  RH  082%=      5-min Rain = 0
KAI1 181120Z 22010KT 01/M01 A2985 RMK A01 T00141014  RH  082%=      5-min Rain = 0
KAI1 181121Z 22009KT 02/M01 A2985 RMK A01 T00151014  RH  081%=      5-min Rain = 0
KAI1 181122Z 22009KT 02/M01 A2985 RMK A01 T00161013  RH  081%=      5-min Rain = 0
KAI1 181123Z 22009KT 02/M01 A2985 RMK A01 T00161013  RH  081%=      5-min Rain = 0
KAI1 181124Z 23009KT 02/M01 A2985 RMK A01 T00171013  RH  081%=      5-min Rain = 0
KAI1 181125Z 23009KT 02/M01 A2985 RMK A01 T00181012  RH  081%=      5-min Rain = 0
KAI1 181126Z 23009KT 02/M01 A2985 RMK A01 T00181012  RH  080%=      5-min Rain = 0
KAI1 181127Z 22008KT 02/M01 A2985 RMK A01 T00181012  RH  080%=      5-min Rain = 0
KAI1 181128Z 22009KT 02/M01 A2985 RMK A01 T00181012  RH  080%=      5-min Rain = 0
KAI1 181129Z 23009KT 02/M01 A2985 RMK A01 T00191012  RH  080%=      5-min Rain = 0
KAI1 181130Z 23009KT 02/M01 A2985 RMK A01 T00201012  RH  080%=      5-min Rain = 0
KAI1 181131Z 23009KT 02/M01 A2985 RMK A01 T00201012  RH  080%=      5-min Rain = 0
KAI1 181132Z 23010KT 02/M01 A2985 RMK A01 T00201012  RH  080%=      5-min Rain = 0
KAI1 181133Z 23009KT 02/M01 A2985 RMK A01 T00211012  RH  079%=      5-min Rain = 0
KAI1 181134Z 23010KT 02/M01 A2985 RMK A01 T00211012  RH  079%=      5-min Rain = 0
KAI1 181135Z 23009KT 02/M01 A2984 RMK A01 T00221012  RH  079%=      5-min Rain = 0
KAI1 181136Z 23009KT 02/M01 A2984 RMK A01 T00231011  RH  078%=      5-min Rain = 0
KAI1 181137Z 22009KT 02/M01 A2984 RMK A01 T00221011  RH  078%=      5-min Rain = 0
KAI1 181138Z 22010KT 02/M01 A2984 RMK A01 T00221012  RH  078%=      5-min Rain = 0
KAI1 181139Z 22009KT 02/M01 A2984 RMK A01 T00231012  RH  078%=      5-min Rain = 0
KAI1 181140Z 23010KT 02/M01 A2984 RMK A01 T00231012  RH  078%=      5-min Rain = 0
KAI1 181141Z 23009KT 02/M01 A2984 RMK A01 T00231012  RH  078%=      5-min Rain = 0
KAI1 181142Z 23009KT 02/M01 A2984 RMK A01 T00231012  RH  078%=      5-min Rain = 0
KAI1 181143Z 23009KT 02/M01 A2984 RMK A01 T00231012  RH  078%=      5-min Rain = 0
KAI1 181144Z 23009KT 02/M01 A2984 RMK A01 T00231012  RH  078%=      5-min Rain = 0
KAI1 181145Z 22008KT 02/M01 A2984 RMK A01 T00231012  RH  078%=      5-min Rain = 0
KAI1 181146Z 22008KT 02/M01 A2983 RMK A01 T00231012  RH  078%=      5-min Rain = 0
KAI1 181147Z 22009KT 02/M01 A2983 RMK A01 T00231012  RH  078%=      5-min Rain = 0
KAI1 181148Z 22009KT 02/M01 A2983 RMK A01 T00221012  RH  078%=      5-min Rain = 0
KAI1 181149Z 22009KT 02/M01 A2983 RMK A01 T00221012  RH  078%=      5-min Rain = 0
KAI1 181150Z 22009KT 02/M01 A2983 RMK A01 T00211013  RH  078%=      5-min Rain = 0
KAI1 181151Z 22009KT 02/M01 A2983 RMK A01 T00211013  RH  078%=      5-min Rain = 0
KAI1 181152Z 22008KT 02/M01 A2983 RMK A01 T00211013  RH  078%=      5-min Rain = 0
KAI1 181153Z 22008KT 02/M01 A2983 RMK A01 T00201013  RH  078%=      5-min Rain = 0
KAI1 181154Z 23007KT 02/M01 A2983 RMK A01 T00201013  RH  079%=      5-min Rain = 0
KAI1 181155Z 23007KT 02/M01 A2983 RMK A01 T00201013  RH  079%=      5-min Rain = 0
KAI1 181156Z 22007KT 02/M01 A2983 RMK A01 T00191014  RH  079%=      5-min Rain = 0
KAI1 181157Z 22007KT 02/M01 A2983 RMK A01 T00191014  RH  079%=      5-min Rain = 0
KAI1 181158Z 21008KT 02/M01 A2983 RMK A01 T00181014  RH  079%=      5-min Rain = 0
KAI1 181159Z 21007KT 02/M01 A2983 RMK A01 T00181014  RH  079%=      5-min Rain = 0
KAI1 181200Z 21007KT 02/M01 A2983 RMK A01 T00181013  RH  080%=      5-min Rain = 0
KAI1 181201Z 21008KT 02/M01 A2983 RMK A01 T00181014  RH  080%=      5-min Rain = 0
KAI1 181202Z 21007KT 02/M01 A2983 RMK A01 T00181014  RH  080%=      5-min Rain = 0
KAI1 181203Z 21008KT 02/M01 A2983 RMK A01 T00181014  RH  080%=      5-min Rain = 0
KAI1 181204Z 22008KT 02/M01 A2983 RMK A01 T00181014  RH  080%=      5-min Rain = 0
KAI1 181205Z 21008KT 02/M01 A2983 RMK A01 T00181013  RH  080%=      5-min Rain = 0
KAI1 181206Z 21008KT 02/M01 A2983 RMK A01 T00181013  RH  080%=      5-min Rain = 0
KAI1 181207Z 22008KT 02/M01 A2983 RMK A01 T00181014  RH  079%=      5-min Rain = 0
KAI1 181208Z 22008KT 02/M01 A2983 RMK A01 T00191013  RH  079%=      5-min Rain = 0
KAI1 181209Z 22007KT 02/M01 A2983 RMK A01 T00191014  RH  079%=      5-min Rain = 0
KAI1 181210Z 22006KT 02/M01 A2983 RMK A01 T00191014  RH  079%=      5-min Rain = 0
KAI1 181211Z 22007KT 02/M01 A2983 RMK A01 T00181014  RH  079%=      5-min Rain = 0
KAI1 181212Z 22006KT 02/M01 A2983 RMK A01 T00181014  RH  079%=      5-min Rain = 0
KAI1 181213Z 21006KT 02/M02 A2982 RMK A01 T00171015  RH  080%=      5-min Rain = 0
KAI1 181214Z 20006KT 02/M02 A2982 RMK A01 T00161015  RH  080%=      5-min Rain = 0
KAI1 181215Z 20007KT 02/M02 A2982 RMK A01 T00161015  RH  080%=      5-min Rain = 0
KAI1 181216Z 20008KT 02/M02 A2981 RMK A01 T00151015  RH  080%=      5-min Rain = 0
KAI1 181217Z 20008KT 02/M01 A2981 RMK A01 T00161014  RH  080%=      5-min Rain = 0
KAI1 181218Z 20008KT 02/M01 A2981 RMK A01 T00171013  RH  080%=      5-min Rain = 0
KAI1 181219Z 20008KT 02/M01 A2982 RMK A01 T00181013  RH  080%=      5-min Rain = 0
KAI1 181220Z 20007KT 02/M01 A2982 RMK A01 T00181013  RH  080%=      5-min Rain = 0
KAI1 181221Z 21008KT 02/M01 A2982 RMK A01 T00181014  RH  079%=      5-min Rain = 0
KAI1 181222Z 21009KT 02/M01 A2982 RMK A01 T00181014  RH  079%=      5-min Rain = 0
KAI1 181223Z 21009KT 02/M01 A2982 RMK A01 T00181014  RH  080%=      5-min Rain = 0
KAI1 181224Z 21009KT 02/M01 A2982 RMK A01 T00171014  RH  080%=      5-min Rain = 0
KAI1 181225Z 21009KT 02/M01 A2982 RMK A01 T00181013  RH  080%=      5-min Rain = 0
KAI1 181226Z 21009KT 02/M01 A2982 RMK A01 T00181013  RH  080%=      5-min Rain = 0
KAI1 181227Z 21009KT 02/M01 A2982 RMK A01 T00181013  RH  080%=      5-min Rain = 0
KAI1 181228Z 21009KT 02/M01 A2982 RMK A01 T00181013  RH  080%=      5-min Rain = 0
KAI1 181229Z 22009KT 02/M01 A2982 RMK A01 T00191012  RH  080%=      5-min Rain = 0
KAI1 181230Z 22009KT 02/M01 A2983 RMK A01 T00201013  RH  079%=      5-min Rain = 0
KAI1 181231Z 22010KT 02/M01 A2983 RMK A01 T00201013  RH  079%=      5-min Rain = 0
KAI1 181232Z 22010KT 02/M01 A2983 RMK A01 T00201012  RH  079%=      5-min Rain = 0
KAI1 181233Z 21009KT 02/M01 A2982 RMK A01 T00211012  RH  079%=      5-min Rain = 0
KAI1 181234Z 22010KT 02/M01 A2982 RMK A01 T00221012  RH  078%=      5-min Rain = 0
KAI1 181235Z 21009KT 02/M01 A2982 RMK A01 T00221012  RH  078%=      5-min Rain = 0
KAI1 181236Z 21009KT 02/M01 A2982 RMK A01 T00221012  RH  078%=      5-min Rain = 0
KAI1 181237Z 22009KT 02/M01 A2983 RMK A01 T00221012  RH  078%=      5-min Rain = 0
KAI1 181238Z 22010KT 02/M01 A2983 RMK A01 T00221012  RH  078%=      5-min Rain = 0
KAI1 181239Z 22009KT 02/M01 A2983 RMK A01 T00221012  RH  078%=      5-min Rain = 0
KAI1 181240Z 22009KT 02/M01 A2983 RMK A01 T00221012  RH  078%=      5-min Rain = 0
KAI1 181241Z 22010KT 02/M01 A2983 RMK A01 T00211012  RH  078%=      5-min Rain = 0
KAI1 181242Z 22010KT 02/M01 A2983 RMK A01 T00211012  RH  078%=      5-min Rain = 0
KAI1 181243Z 22011KT 02/M01 A2983 RMK A01 T00221012  RH  078%=      5-min Rain = 0
KAI1 181244Z 22010KT 02/M01 A2982 RMK A01 T00221012  RH  078%=      5-min Rain = 0
KAI1 181245Z 21010KT 02/M01 A2982 RMK A01 T00231011  RH  078%=      5-min Rain = 0
KAI1 181246Z 22010KT 02/M01 A2982 RMK A01 T00241011  RH  078%=      5-min Rain = 0
KAI1 181247Z 21010KT 02/M01 A2982 RMK A01 T00241011  RH  078%=      5-min Rain = 0
KAI1 181248Z 21011KT 03/M01 A2983 RMK A01 T00251011  RH  078%=      5-min Rain = 0
KAI1 181249Z 21012KT 03/M01 A2983 RMK A01 T00261010  RH  077%=      5-min Rain = 0
KAI1 181250Z 21012KT 03/M01 A2983 RMK A01 T00271010  RH  077%=      5-min Rain = 0
KAI1 181251Z 21011KT 03/M01 A2982 RMK A01 T00281010  RH  076%=      5-min Rain = 0
KAI1 181252Z 21011KT 03/M01 A2982 RMK A01 T00281010  RH  076%=      5-min Rain = 0
KAI1 181253Z 21012KT 03/M01 A2982 RMK A01 T00291009  RH  076%=      5-min Rain = 0
KAI1 181254Z 21013KT 03/M01 A2982 RMK A01 T00291009  RH  076%=      5-min Rain = 0
KAI1 181255Z 21012KT 03/M01 A2982 RMK A01 T00301009  RH  075%=      5-min Rain = 0
KAI1 181256Z 22011KT 03/M01 A2982 RMK A01 T00311009  RH  075%=      5-min Rain = 0
KAI1 181257Z 21011KT 03/M01 A2982 RMK A01 T00311009  RH  075%=      5-min Rain = 0
KAI1 181258Z 21011KT 03/M01 A2982 RMK A01 T00301009  RH  075%=      5-min Rain = 0
KAI1 181259Z 21011KT 03/M01 A2982 RMK A01 T00301010  RH  075%=      5-min Rain = 0
KAI1 181300Z 22011KT 03/M01 A2982 RMK A01 T00301010  RH  075%=      5-min Rain = 0
KAI1 181301Z 22010KT 03/M01 A2982 RMK A01 T00301010  RH  075%=      5-min Rain = 0
KAI1 181302Z 22010KT 03/M01 A2982 RMK A01 T00301010  RH  075%=      5-min Rain = 0
KAI1 181303Z 22011KT 03/M01 A2982 RMK A01 T00301010  RH  075%=      5-min Rain = 0
KAI1 181304Z 22009KT 03/M01 A2982 RMK A01 T00301010  RH  075%=      5-min Rain = 0
KAI1 181305Z 22011KT 03/M01 A2983 RMK A01 T00291010  RH  075%=      5-min Rain = 0
KAI1 181306Z 22010KT 03/M01 A2983 RMK A01 T00281011  RH  076%=      5-min Rain = 0
KAI1 181307Z 22011KT 03/M01 A2983 RMK A01 T00281010  RH  076%=      5-min Rain = 0
KAI1 181308Z 22010KT 03/M01 A2982 RMK A01 T00271011  RH  076%=      5-min Rain = 0
KAI1 181309Z 23010KT 03/M01 A2982 RMK A01 T00271011  RH  076%=      5-min Rain = 0
KAI1 181310Z 23009KT 03/M01 A2982 RMK A01 T00261011  RH  076%=      5-min Rain = 0
KAI1 181311Z 23009KT 03/M01 A2982 RMK A01 T00261011  RH  077%=      5-min Rain = 0
KAI1 181312Z 23009KT 03/M01 A2982 RMK A01 T00251011  RH  077%=      5-min Rain = 0
KAI1 181313Z 23009KT 03/M01 A2982 RMK A01 T00251011  RH  077%=      5-min Rain = 0
KAI1 181314Z 23009KT 02/M01 A2982 RMK A01 T00241011  RH  077%=      5-min Rain = 0
KAI1 181315Z 23009KT 02/M01 A2982 RMK A01 T00241012  RH  077%=      5-min Rain = 0
KAI1 181316Z 22009KT 02/M01 A2982 RMK A01 T00241012  RH  077%=      5-min Rain = 0
KAI1 181317Z 22009KT 02/M01 A2982 RMK A01 T00231012  RH  078%=      5-min Rain = 0
KAI1 181318Z 22010KT 02/M01 A2982 RMK A01 T00231012  RH  078%=      5-min Rain = 0
KAI1 181319Z 22009KT 02/M01 A2982 RMK A01 T00231012  RH  078%=      5-min Rain = 0
KAI1 181320Z 22009KT 02/M01 A2982 RMK A01 T00221012  RH  078%=      5-min Rain = 0
KAI1 181321Z 22008KT 02/M01 A2982 RMK A01 T00221012  RH  078%=      5-min Rain = 0
KAI1 181322Z 22009KT 02/M01 A2982 RMK A01 T00221012  RH  078%=      5-min Rain = 0
KAI1 181323Z 22008KT 02/M01 A2982 RMK A01 T00221012  RH  078%=      5-min Rain = 0
KAI1 181324Z 23008KT 02/M01 A2982 RMK A01 T00221011  RH  078%=      5-min Rain = 0
KAI1 181325Z 23008KT 02/M01 A2982 RMK A01 T00221011  RH  079%=      5-min Rain = 0
KAI1 181326Z 24007KT 02/M01 A2982 RMK A01 T00221011  RH  079%=      5-min Rain = 0
KAI1 181327Z 24008KT 02/M01 A2982 RMK A01 T00221011  RH  079%=      5-min Rain = 0
KAI1 181328Z 24008KT 02/M01 A2982 RMK A01 T00221011  RH  079%=      5-min Rain = 0
KAI1 181329Z 24008KT 02/M01 A2982 RMK A01 T00221011  RH  079%=      5-min Rain = 0
KAI1 181330Z 24007KT 02/M01 A2982 RMK A01 T00211011  RH  079%=      5-min Rain = 0
KAI1 181331Z 24007KT 02/M01 A2982 RMK A01 T00221011  RH  079%=      5-min Rain = 0
KAI1 181332Z 23007KT 02/M01 A2982 RMK A01 T00221010  RH  079%=      5-min Rain = 0
KAI1 181333Z 23007KT 02/M01 A2982 RMK A01 T00221010  RH  079%=      5-min Rain = 0
KAI1 181334Z 23007KT 02/M01 A2982 RMK A01 T00221010  RH  080%=      5-min Rain = 0
KAI1 181335Z 23006KT 02/M01 A2982 RMK A01 T00221009  RH  080%=      5-min Rain = 0
KAI1 181336Z 23007KT 02/M01 A2982 RMK A01 T00221009  RH  080%=      5-min Rain = 0
KAI1 181337Z 24006KT 02/M01 A2982 RMK A01 T00221009  RH  080%=      5-min Rain = 0
KAI1 181338Z 24006KT 02/M01 A2981 RMK A01 T00221009  RH  080%=      5-min Rain = 0
KAI1 181339Z 24006KT 02/M01 A2981 RMK A01 T00221009  RH  080%=      5-min Rain = 0
KAI1 181340Z 25006KT 02/M01 A2981 RMK A01 T00221009  RH  080%=      5-min Rain = 0
KAI1 181341Z 24006KT 02/M01 A2981 RMK A01 T00231009  RH  080%=      5-min Rain = 0
KAI1 181342Z 25006KT 02/M01 A2981 RMK A01 T00231009  RH  080%=      5-min Rain = 0
KAI1 181343Z 25007KT 02/M01 A2982 RMK A01 T00221009  RH  080%=      5-min Rain = 0
KAI1 181344Z 24007KT 02/M01 A2982 RMK A01 T00221009  RH  080%=      5-min Rain = 0
KAI1 181345Z 24007KT 02/M01 A2982 RMK A01 T00231009  RH  080%=      5-min Rain = 0
KAI1 181346Z 23007KT 02/M01 A2982 RMK A01 T00241008  RH  079%=      5-min Rain = 0
KAI1 181347Z 23007KT 02/M01 A2982 RMK A01 T00241008  RH  079%=      5-min Rain = 0
KAI1 181348Z 23008KT 02/M01 A2982 RMK A01 T00241008  RH  079%=      5-min Rain = 0
KAI1 181349Z 23009KT 03/M01 A2982 RMK A01 T00251008  RH  079%=      5-min Rain = 0
KAI1 181350Z 23009KT 03/M01 A2982 RMK A01 T00261007  RH  079%=      5-min Rain = 0
KAI1 181351Z 23008KT 03/M01 A2982 RMK A01 T00261007  RH  079%=      5-min Rain = 0
KAI1 181352Z 23009KT 03/M01 A2982 RMK A01 T00261007  RH  079%=      5-min Rain = 0
KAI1 181353Z 23009KT 03/M01 A2982 RMK A01 T00271007  RH  078%=      5-min Rain = 0
KAI1 181354Z 23009KT 03/M01 A2982 RMK A01 T00281006  RH  078%=      5-min Rain = 0
KAI1 181355Z 23010KT 03/M01 A2982 RMK A01 T00291006  RH  078%=      5-min Rain = 0
KAI1 181356Z 23010KT 03/M01 A2982 RMK A01 T00301006  RH  078%=      5-min Rain = 0
KAI1 181357Z 23010KT 03/M01 A2982 RMK A01 T00311005  RH  077%=      5-min Rain = 0
KAI1 181358Z 23010KT 03/M01 A2982 RMK A01 T00321005  RH  077%=      5-min Rain = 0
KAI1 181359Z 23009KT 03/M00 A2982 RMK A01 T00331004  RH  076%=      5-min Rain = 0
KAI1 181400Z 22009KT 03/M01 A2982 RMK A01 T00341005  RH  076%=      5-min Rain = 0
KAI1 181401Z 23009KT 04/M01 A2982 RMK A01 T00351005  RH  075%=      5-min Rain = 0
KAI1 181402Z 22009KT 04/M00 A2982 RMK A01 T00351004  RH  075%=      5-min Rain = 0
KAI1 181403Z 24008KT 04/M01 A2982 RMK A01 T00351005  RH  075%=      5-min Rain = 0
KAI1 181404Z 24009KT 04/M00 A2981 RMK A01 T00351004  RH  076%=      5-min Rain = 0
KAI1 181405Z 24010KT 04/M00 A2981 RMK A01 T00361003  RH  076%=      5-min Rain = 0
KAI1 181406Z 24010KT 04/M00 A2981 RMK A01 T00381002  RH  075%=      5-min Rain = 0
KAI1 181407Z 24009KT 04/M00 A2982 RMK A01 T00401001  RH  074%=      5-min Rain = 0
KAI1 181408Z 24009KT 04/M00 A2982 RMK A01 T00411001  RH  074%=      5-min Rain = 0
KAI1 181409Z 24009KT 04/00 A2982 RMK A01 T004300-0  RH  074%=      5-min Rain = 0
KAI1 181410Z 24009KT 04/00 A2982 RMK A01 T00440001  RH  073%=      5-min Rain = 0
KAI1 181411Z 24009KT 05/00 A2981 RMK A01 T00460001  RH  073%=      5-min Rain = 0
KAI1 181412Z 24010KT 05/00 A2981 RMK A01 T00470002  RH  072%=      5-min Rain = 0
KAI1 181413Z 24010KT 05/00 A2981 RMK A01 T00490002  RH  072%=      5-min Rain = 0
KAI1 181414Z 24009KT 05/00 A2981 RMK A01 T00500002  RH  071%=      5-min Rain = 0
KAI1 181415Z 24010KT 05/00 A2981 RMK A01 T00510003  RH  071%=      5-min Rain = 0
KAI1 181416Z 24011KT 05/00 A2981 RMK A01 T00520004  RH  071%=      5-min Rain = 0
KAI1 181417Z 23010KT 05/00 A2981 RMK A01 T00540004  RH  070%=      5-min Rain = 0
KAI1 181418Z 23010KT 06/00 A2981 RMK A01 T00550004  RH  069%=      5-min Rain = 0
KAI1 181419Z 23011KT 06/00 A2981 RMK A01 T00550003  RH  069%=      5-min Rain = 0
KAI1 181420Z 23012KT 06/00 A2981 RMK A01 T00550004  RH  069%=      5-min Rain = 0
KAI1 181421Z 23011KT 06/00 A2981 RMK A01 T00560004  RH  069%=      5-min Rain = 0
KAI1 181422Z 24011KT 06/00 A2981 RMK A01 T00560004  RH  069%=      5-min Rain = 0
KAI1 181423Z 24011KT 06/00 A2981 RMK A01 T00570004  RH  068%=      5-min Rain = 0
KAI1 181424Z 24012KT 06/00 A2981 RMK A01 T00580004  RH  068%=      5-min Rain = 0
KAI1 181425Z 24011KT 06/00 A2981 RMK A01 T00590004  RH  068%=      5-min Rain = 0
KAI1 181426Z 24012KT 06/00 A2981 RMK A01 T00600004  RH  067%=      5-min Rain = 0
KAI1 181427Z 24012KT 06/00 A2981 RMK A01 T00610004  RH  067%=      5-min Rain = 0
KAI1 181428Z 24012KT 06/00 A2981 RMK A01 T00620004  RH  066%=      5-min Rain = 0
KAI1 181429Z 24012KT 06/00 A2981 RMK A01 T00630004  RH  066%=      5-min Rain = 0
KAI1 181430Z 24012KT 06/00 A2981 RMK A01 T00630004  RH  066%=      5-min Rain = 0
KAI1 181431Z 23012KT 06/00 A2981 RMK A01 T00630004  RH  066%=      5-min Rain = 0
KAI1 181432Z 24012KT 06/00 A2981 RMK A01 T00630004  RH  066%=      5-min Rain = 0
KAI1 181433Z 24012KT 06/00 A2981 RMK A01 T00630004  RH  066%=      5-min Rain = 0
KAI1 181434Z 24011KT 06/00 A2981 RMK A01 T00630004  RH  066%=      5-min Rain = 0
KAI1 181435Z 24012KT 06/00 A2981 RMK A01 T00630004  RH  066%=      5-min Rain = 0
KAI1 181436Z 24013KT 06/00 A2981 RMK A01 T00630004  RH  066%=      5-min Rain = 0
KAI1 181437Z 24012KT 06/00 A298 RMK A01 T00640004  RH  065%=      5-min Rain = 0
KAI1 181438Z 24012KT 07/00 A298 RMK A01 T00650004  RH  065%=      5-min Rain = 0
KAI1 181439Z 24013KT 07/00 A298 RMK A01 T00660004  RH  065%=      5-min Rain = 0
KAI1 181440Z 24013KT 07/00 A298 RMK A01 T00660004  RH  065%=      5-min Rain = 0
KAI1 181441Z 24014KT 07/00 A298 RMK A01 T00670004  RH  064%=      5-min Rain = 0
KAI1 181442Z 23012KT 07/01 A298 RMK A01 T00670005  RH  064%=      5-min Rain = 0
KAI1 181443Z 24013KT 07/00 A298 RMK A01 T00680004  RH  064%=      5-min Rain = 0
KAI1 181444Z 24012KT 07/01 A298 RMK A01 T00680005  RH  064%=      5-min Rain = 0
KAI1 181445Z 24012KT 07/01 A298 RMK A01 T00690005  RH  064%=      5-min Rain = 0
KAI1 181446Z 24013KT 07/01 A298 RMK A01 T00700006  RH  063%=      5-min Rain = 0
KAI1 181447Z 24013KT 07/01 A298 RMK A01 T00720005  RH  063%=      5-min Rain = 0
KAI1 181448Z 24014KT 07/01 A298 RMK A01 T00740006  RH  062%=      5-min Rain = 0
KAI1 181449Z 24013KT 08/01 A298 RMK A01 T00760006  RH  061%=      5-min Rain = 0
KAI1 181450Z 24013KT 08/01 A298 RMK A01 T00770007  RH  061%=      5-min Rain = 0
KAI1 181451Z 24012KT 08/01 A298 RMK A01 T00780007  RH  061%=      5-min Rain = 0
KAI1 181452Z 24012KT 08/01 A298 RMK A01 T00800009  RH  061%=      5-min Rain = 0
KAI1 181453Z 25013KT 08/01 A298 RMK A01 T00800009  RH  060%=      5-min Rain = 0
KAI1 181454Z 24014KT 08/01 A298 RMK A01 T00810008  RH  060%=      5-min Rain = 0
KAI1 181455Z 24012KT 08/01 A298 RMK A01 T00820008  RH  060%=      5-min Rain = 0
KAI1 181456Z 24011KT 08/01 A298 RMK A01 T00830009  RH  060%=      5-min Rain = 0
KAI1 181457Z 24012KT 08/01 A298 RMK A01 T00840010  RH  060%=      5-min Rain = 0
KAI1 181458Z 24012KT 09/01 A298 RMK A01 T00850011  RH  060%=      5-min Rain = 0
KAI1 181459Z 24012KT 09/01 A298 RMK A01 T00860010  RH  059%=      5-min Rain = 0
KAI1 181500Z 24013KT 09/01 A298 RMK A01 T00870010  RH  058%=      5-min Rain = 0
KAI1 181501Z 25011KT 09/01 A298 RMK A01 T00880010  RH  058%=      5-min Rain = 0
KAI1 181502Z 25012KT 09/01 A298 RMK A01 T00890011  RH  058%=      5-min Rain = 0
KAI1 181503Z 25011KT 09/01 A298 RMK A01 T00900010  RH  057%=      5-min Rain = 0
KAI1 181504Z 25010KT 09/01 A298 RMK A01 T00920012  RH  057%=      5-min Rain = 0
KAI1 181505Z 25011KT 09/01 A298 RMK A01 T00940013  RH  057%=      5-min Rain = 0
KAI1 181506Z 25011KT 10/01 A298 RMK A01 T00960013  RH  056%=      5-min Rain = 0
KAI1 181507Z 25013KT 10/01 A298 RMK A01 T00990013  RH  055%=      5-min Rain = 0
KAI1 181508Z 24012KT 10/01 A298 RMK A01 T01010013  RH  054%=      5-min Rain = 0
KAI1 181509Z 25013KT 10/01 A298 RMK A01 T01040014  RH  054%=      5-min Rain = 0
KAI1 181510Z 24012KT 11/01 A298 RMK A01 T01070014  RH  053%=      5-min Rain = 0
KAI1 181511Z 25012KT 11/01 A298 RMK A01 T01100014  RH  052%=      5-min Rain = 0
KAI1 181512Z 25014KT 11/02 A298 RMK A01 T01140017  RH  051%=      5-min Rain = 0
KAI1 181513Z 25011KT 12/02 A298 RMK A01 T01180017  RH  050%=      5-min Rain = 0
KAI1 181514Z 25014KT 12/02 A2979 RMK A01 T01220016  RH  048%=      5-min Rain = 0
KAI1 181515Z 25015G22KT 13/01 A2979 RMK A01 T01250013  RH  046%=      5-min Rain = 0
KAI1 181516Z 25017KT 13/01 A2979 RMK A01 T01280010  RH  045%=      5-min Rain = 0
KAI1 181517Z 25018KT 13/01 A2979 RMK A01 T01300010  RH  044%=      5-min Rain = 0
KAI1 181518Z 26018KT 13/01 A2979 RMK A01 T01320010  RH  043%=      5-min Rain = 0
KAI1 181519Z 25015G21KT 13/01 A2979 RMK A01 T01330009  RH  043%=      5-min Rain = 0
KAI1 181520Z 25020KT 14/01 A2979 RMK A01 T01350009  RH  042%=      5-min Rain = 0
KAI1 181521Z 25018KT 14/01 A2979 RMK A01 T01360006  RH  041%=      5-min Rain = 0
KAI1 181522Z 25016KT 14/01 A2979 RMK A01 T01370008  RH  042%=      5-min Rain = 0
KAI1 181523Z 24017KT 14/01 A2979 RMK A01 T01370008  RH  041%=      5-min Rain = 0
KAI1 181524Z 24019G25KT 14/01 A2979 RMK A01 T01370007  RH  041%=      5-min Rain = 0
KAI1 181525Z 24021KT 14/01 A2979 RMK A01 T01360006  RH  041%=      5-min Rain = 0
KAI1 181526Z 24021KT 14/01 A2979 RMK A01 T01350005  RH  041%=      5-min Rain = 0
KAI1 181527Z 25021G26KT 13/00 A2979 RMK A01 T01340004  RH  041%=      5-min Rain = 0
KAI1 181528Z 25018KT 13/00 A2979 RMK A01 T01310003  RH  041%=      5-min Rain = 0
KAI1 181529Z 25017KT 13/00 A2979 RMK A01 T01310004  RH  042%=      5-min Rain = 0
KAI1 181530Z 24019G24KT 13/01 A2979 RMK A01 T01300006  RH  043%=      5-min Rain = 0
KAI1 181531Z 25018KT 13/01 A2979 RMK A01 T01300005  RH  042%=      5-min Rain = 0
KAI1 181532Z 25017KT 13/01 A2979 RMK A01 T01290005  RH  043%=      5-min Rain = 0
KAI1 181533Z 25016KT 13/01 A2979 RMK A01 T01290007  RH  043%=      5-min Rain = 0
KAI1 181534Z 25018G23KT 13/01 A2979 RMK A01 T01290007  RH  043%=      5-min Rain = 0
KAI1 181535Z 25019KT 13/01 A2979 RMK A01 T01280005  RH  043%=      5-min Rain = 0
KAI1 181536Z 25017KT 13/01 A2979 RMK A01 T01280005  RH  043%=      5-min Rain = 0
KAI1 181537Z 25018KT 13/01 A2979 RMK A01 T01280006  RH  043%=      5-min Rain = 0
KAI1 181538Z 25019KT 13/01 A2979 RMK A01 T01280006  RH  043%=      5-min Rain = 0
KAI1 181539Z 25019KT 13/01 A2979 RMK A01 T01280006  RH  043%=      5-min Rain = 0
KAI1 181540Z 25020KT 13/01 A2979 RMK A01 T01280006  RH  043%=      5-min Rain = 0
KAI1 181541Z 25019G24KT 13/01 A2979 RMK A01 T01280006  RH  043%=      5-min Rain = 0
KAI1 181542Z 25019KT 13/01 A2979 RMK A01 T01280006  RH  043%=      5-min Rain = 0
KAI1 181543Z 25019G25KT 13/01 A2979 RMK A01 T01280005  RH  043%=      5-min Rain = 0
KAI1 181544Z 25018KT 13/01 A2979 RMK A01 T01280005  RH  043%=      5-min Rain = 0
KAI1 181545Z 25018KT 13/01 A2979 RMK A01 T01290006  RH  043%=      5-min Rain = 0
KAI1 181546Z 25017G23KT 13/01 A2979 RMK A01 T01290006  RH  043%=      5-min Rain = 0
KAI1 181547Z 25016G21KT 13/01 A2979 RMK A01 T01290006  RH  043%=      5-min Rain = 0
KAI1 181548Z 25019KT 13/01 A2979 RMK A01 T01300006  RH  043%=      5-min Rain = 0
KAI1 181549Z 25016KT 13/01 A2979 RMK A01 T01290006  RH  043%=      5-min Rain = 0
KAI1 181550Z 25017G22KT 13/01 A2979 RMK A01 T01300008  RH  043%=      5-min Rain = 0
KAI1 181551Z 25017KT 13/01 A2979 RMK A01 T01310007  RH  043%=      5-min Rain = 0
KAI1 181552Z 25017KT 13/01 A2979 RMK A01 T01320007  RH  042%=      5-min Rain = 0
KAI1 181553Z 25017KT 13/01 A2979 RMK A01 T01320007  RH  042%=      5-min Rain = 0
KAI1 181554Z 25017KT 13/01 A2979 RMK A01 T01320007  RH  042%=      5-min Rain = 0
KAI1 181555Z 25017G23KT 13/01 A2979 RMK A01 T01320008  RH  043%=      5-min Rain = 0
KAI1 181556Z 26018KT 13/01 A2979 RMK A01 T01320007  RH  042%=      5-min Rain = 0
KAI1 181557Z 26016KT 13/01 A2979 RMK A01 T01310007  RH  043%=      5-min Rain = 0
KAI1 181558Z 26017KT 13/01 A2979 RMK A01 T01310007  RH  043%=      5-min Rain = 0
KAI1 181559Z 25017KT 13/01 A2979 RMK A01 T01310007  RH  043%=      5-min Rain = 0
KAI1 181600Z 25017KT 13/01 A2979 RMK A01 T01310006  RH  042%=      5-min Rain = 0
KAI1 181601Z 25018G23KT 13/01 A2978 RMK A01 T01320007  RH  042%=      5-min Rain = 0
KAI1 181602Z 26016KT 13/01 A2979 RMK A01 T01330007  RH  042%=      5-min Rain = 0
KAI1 181603Z 25016KT 14/01 A2979 RMK A01 T01350009  RH  042%=      5-min Rain = 0
KAI1 181604Z 25019KT 14/01 A2979 RMK A01 T01370009  RH  042%=      5-min Rain = 0
KAI1 181605Z 25019KT 14/01 A2978 RMK A01 T01370007  RH  041%=      5-min Rain = 0
KAI1 181606Z 26018KT 14/01 A2979 RMK A01 T01380008  RH  041%=      5-min Rain = 0
KAI1 181607Z 26017KT 14/01 A2979 RMK A01 T01400008  RH  041%=      5-min Rain = 0
KAI1 181608Z 26017KT 14/01 A2978 RMK A01 T01420009  RH  040%=      5-min Rain = 0
KAI1 181609Z 25016G21KT 14/01 A2978 RMK A01 T01420009  RH  040%=      5-min Rain = 0
KAI1 181610Z 26019KT 14/01 A2978 RMK A01 T01420008  RH  040%=      5-min Rain = 0
KAI1 181611Z 26016G21KT 14/01 A2978 RMK A01 T01420006  RH  039%=      5-min Rain = 0
KAI1 181612Z 26019G24KT 14/01 A2979 RMK A01 T01420006  RH  039%=      5-min Rain = 0
KAI1 181613Z 26017KT 14/01 A2978 RMK A01 T01440006  RH  039%=      5-min Rain = 0
KAI1 181614Z 26017G22KT 15/01 A2979 RMK A01 T01460007  RH  039%=      5-min Rain = 0
KAI1 181615Z 26019G24KT 15/01 A2979 RMK A01 T01480007  RH  038%=      5-min Rain = 0
KAI1 181616Z 26023G28KT 15/01 A2978 RMK A01 T01490005  RH  037%=      5-min Rain = 0
KAI1 181617Z 26022KT 15/00 A2978 RMK A01 T01490002  RH  037%=      5-min Rain = 0
KAI1 181618Z 26023G29KT 15/00 A2978 RMK A01 T01480002  RH  037%=      5-min Rain = 0
KAI1 181619Z 26023KT 15/00 A2978 RMK A01 T01470001  RH  037%=      5-min Rain = 0
KAI1 181620Z 26021KT 15/00 A2978 RMK A01 T01470002  RH  037%=      5-min Rain = 0
KAI1 181621Z 27020KT 15/00 A2978 RMK A01 T01460001  RH  037%=      5-min Rain = 0
KAI1 181622Z 26020G27KT 15/00 A2978 RMK A01 T01480003  RH  037%=      5-min Rain = 0
KAI1 181623Z 26021KT 15/00 A2978 RMK A01 T01510002  RH  036%=      5-min Rain = 0
KAI1 181624Z 26022G28KT 15/00 A2978 RMK A01 T01520002  RH  036%=      5-min Rain = 0
KAI1 181625Z 26020KT 15/00 A2978 RMK A01 T015200-0  RH  035%=      5-min Rain = 0
KAI1 181626Z 26021KT 15/00 A2978 RMK A01 T01510001  RH  036%=      5-min Rain = 0
KAI1 181627Z 26021G26KT 15/00 A2978 RMK A01 T015200-0  RH  035%=      5-min Rain = 0
KAI1 181628Z 26021G27KT 15/M00 A2978 RMK A01 T01511001  RH  035%=      5-min Rain = 0
KAI1 181629Z 27024G29KT 15/M00 A2978 RMK A01 T01521001  RH  035%=      5-min Rain = 0
KAI1 181630Z 27025KT 15/M00 A2978 RMK A01 T01531003  RH  035%=      5-min Rain = 0
KAI1 181631Z 26021G26KT 15/M00 A2978 RMK A01 T01531001  RH  035%=      5-min Rain = 0
KAI1 181632Z 26023KT 15/M00 A2978 RMK A01 T01531001  RH  035%=      5-min Rain = 0
KAI1 181633Z 27022KT 15/00 A2978 RMK A01 T01530000  RH  035%=      5-min Rain = 0
KAI1 181634Z 26022KT 15/00 A2978 RMK A01 T01530001  RH  035%=      5-min Rain = 0
KAI1 181635Z 26021G26KT 15/00 A2977 RMK A01 T01540000  RH  035%=      5-min Rain = 0
KAI1 181636Z 26021KT 15/00 A2977 RMK A01 T01540001  RH  035%=      5-min Rain = 0
KAI1 181637Z 27020KT 16/00 A2978 RMK A01 T01550002  RH  035%=      5-min Rain = 0
KAI1 181638Z 27023KT 16/00 A2978 RMK A01 T01550002  RH  035%=      5-min Rain = 0
KAI1 181639Z 27023G28KT 16/00 A2977 RMK A01 T01550001  RH  035%=      5-min Rain = 0
KAI1 181640Z 27021G26KT 15/00 A2977 RMK A01 T01530001  RH  035%=      5-min Rain = 0
KAI1 181641Z 27025KT 15/00 A2978 RMK A01 T01530002  RH  036%=      5-min Rain = 0
KAI1 181642Z 27025KT 15/00 A2978 RMK A01 T01520000  RH  035%=      5-min Rain = 0
KAI1 181643Z 27024G29KT 15/00 A2978 RMK A01 T01520001  RH  036%=      5-min Rain = 0
KAI1 181644Z 27019G26KT 15/00 A2978 RMK A01 T01530003  RH  036%=      5-min Rain = 0
KAI1 181645Z 26023G28KT 16/00 A2978 RMK A01 T01550004  RH  036%=      5-min Rain = 0
KAI1 181646Z 27021G26KT 16/00 A2978 RMK A01 T01550003  RH  035%=      5-min Rain = 0
KAI1 181647Z 27023KT 16/00 A2978 RMK A01 T01550004  RH  036%=      5-min Rain = 0
KAI1 181648Z 26019KT 16/01 A2978 RMK A01 T01560005  RH  036%=      5-min Rain = 0
KAI1 181649Z 27021KT 16/01 A2978 RMK A01 T01580005  RH  035%=      5-min Rain = 0
KAI1 181650Z 27019KT 16/01 A2978 RMK A01 T01580005  RH  035%=      5-min Rain = 0
KAI1 181651Z 27020G25KT 16/01 A2978 RMK A01 T01590005  RH  035%=      5-min Rain = 0
KAI1 181652Z 26021KT 16/01 A2977 RMK A01 T01600005  RH  035%=      5-min Rain = 0
KAI1 181653Z 26021KT 16/00 A2977 RMK A01 T01600004  RH  035%=      5-min Rain = 0
KAI1 181654Z 26020KT 16/00 A2977 RMK A01 T01610004  RH  035%=      5-min Rain = 0
KAI1 181655Z 27019G25KT 16/01 A2977 RMK A01 T01630005  RH  034%=      5-min Rain = 0
KAI1 181656Z 26019G24KT 17/01 A2977 RMK A01 T01650007  RH  034%=      5-min Rain = 0
KAI1 181657Z 26021KT 17/01 A2977 RMK A01 T01670005  RH  033%=      5-min Rain = 0
KAI1 181658Z 27021KT 17/00 A2977 RMK A01 T01670003  RH  033%=      5-min Rain = 0
KAI1 181659Z 27022G31KT 17/01 A2977 RMK A01 T01680005  RH  033%=      5-min Rain = 0
KAI1 181700Z 27023G28KT 17/00 A2977 RMK A01 T01680003  RH  033%=      5-min Rain = 0
KAI1 181701Z 26025KT 17/00 A2977 RMK A01 T01670002  RH  032%=      5-min Rain = 0
KAI1 181702Z 27025KT 17/00 A2977 RMK A01 T01670001  RH  032%=      5-min Rain = 0
KAI1 181703Z 27023G28KT 17/00 A2977 RMK A01 T01670001  RH  032%=      5-min Rain = 0
KAI1 181704Z 27026KT 17/00 A2977 RMK A01 T01680002  RH  032%=      5-min Rain = 0
KAI1 181705Z 26022G27KT 17/00 A2977 RMK A01 T01690001  RH  032%=      5-min Rain = 0
KAI1 181706Z 27022G28KT 17/00 A2977 RMK A01 T01700003  RH  032%=      5-min Rain = 0
KAI1 181707Z 27024G30KT 17/00 A2977 RMK A01 T01720003  RH  032%=      5-min Rain = 0
KAI1 181708Z 27023G28KT 17/00 A2977 RMK A01 T01730001  RH  031%=      5-min Rain = 0
KAI1 181709Z 27025G30KT 17/00 A2976 RMK A01 T01720001  RH  031%=      5-min Rain = 0
KAI1 181710Z 27025KT 17/00 A2976 RMK A01 T017300-0  RH  031%=      5-min Rain = 0
KAI1 181711Z 27026KT 17/00 A2976 RMK A01 T017300-0  RH  031%=      5-min Rain = 0
KAI1 181712Z 27025G31KT 17/M00 A2976 RMK A01 T01731001  RH  031%=      5-min Rain = 0
KAI1 181713Z 27025G30KT 17/00 A2976 RMK A01 T017300-0  RH  031%=      5-min Rain = 0
KAI1 181714Z 26023G29KT 17/M00 A2976 RMK A01 T01731001  RH  031%=      5-min Rain = 0
KAI1 181715Z 26024G29KT 17/00 A2976 RMK A01 T01740000  RH  031%=      5-min Rain = 0
KAI1 181716Z 26020KT 18/00 A2976 RMK A01 T01750003  RH  031%=      5-min Rain = 0
KAI1 181717Z 27021KT 18/00 A2976 RMK A01 T01790003  RH  031%=      5-min Rain = 0
KAI1 181718Z 27022G29KT 18/00 A2976 RMK A01 T01800003  RH  030%=      5-min Rain = 0
KAI1 181719Z 26025G30KT 18/00 A2976 RMK A01 T01810001  RH  030%=      5-min Rain = 0
KAI1 181720Z 26026KT 18/M00 A2976 RMK A01 T01801001  RH  029%=      5-min Rain = 0
KAI1 181721Z 27024G29KT 18/M00 A2976 RMK A01 T01791001  RH  030%=      5-min Rain = 0
KAI1 181722Z 26024G29KT 18/00 A2976 RMK A01 T01790001  RH  030%=      5-min Rain = 0
KAI1 181723Z 26025KT 18/00 A2976 RMK A01 T01790000  RH  030%=      5-min Rain = 0
KAI1 181724Z 26027G33KT 18/00 A2975 RMK A01 T01790000  RH  030%=      5-min Rain = 0
KAI1 181725Z 26024G30KT 18/M00 A2975 RMK A01 T01791001  RH  030%=      5-min Rain = 0
KAI1 181726Z 26022KT 18/00 A2975 RMK A01 T01800001  RH  030%=      5-min Rain = 0
KAI1 181727Z 26020KT 18/00 A2975 RMK A01 T01820003  RH  030%=      5-min Rain = 0
KAI1 181728Z 26025KT 18/00 A2975 RMK A01 T01840003  RH  030%=      5-min Rain = 0
KAI1 181729Z 25027KT 18/00 A2975 RMK A01 T01840002  RH  029%=      5-min Rain = 0
KAI1 181730Z 26028KT 18/00 A2975 RMK A01 T01840002  RH  029%=      5-min Rain = 0
KAI1 181731Z 26025KT 18/00 A2975 RMK A01 T01830001  RH  029%=      5-min Rain = 0
KAI1 181732Z 26022KT 18/00 A2976 RMK A01 T01830003  RH  030%=      5-min Rain = 0
KAI1 181733Z 25023G30KT 19/01 A2976 RMK A01 T01850005  RH  030%=      5-min Rain = 0
KAI1 181734Z 25027G33KT 19/00 A2975 RMK A01 T01860003  RH  029%=      5-min Rain = 0
KAI1 181735Z 25026KT 18/00 A2975 RMK A01 T01840001  RH  029%=      5-min Rain = 0
KAI1 181736Z 25025KT 18/00 A2975 RMK A01 T01820000  RH  029%=      5-min Rain = 0
KAI1 181737Z 25023KT 18/00 A2976 RMK A01 T01820002  RH  030%=      5-min Rain = 0
KAI1 181738Z 25027G35KT 18/00 A2975 RMK A01 T01840003  RH  030%=      5-min Rain = 0
KAI1 181739Z 25027KT 18/00 A2975 RMK A01 T01840002  RH  029%=      5-min Rain = 0
KAI1 181740Z 25022G27KT 18/00 A2975 RMK A01 T01830001  RH  029%=      5-min Rain = 0
KAI1 181741Z 25023G28KT 18/00 A2975 RMK A01 T01830003  RH  030%=      5-min Rain = 0
KAI1 181742Z 25026G32KT 19/00 A2975 RMK A01 T01860003  RH  029%=      5-min Rain = 0
KAI1 181743Z 25025G31KT 19/00 A2975 RMK A01 T018600-0  RH  029%=      5-min Rain = 0
KAI1 181744Z 25024KT 19/00 A2975 RMK A01 T01850001  RH  029%=      5-min Rain = 0
KAI1 181745Z 26026G33KT 19/00 A2975 RMK A01 T01860001  RH  029%=      5-min Rain = 0
KAI1 181746Z 25027KT 19/00 A2975 RMK A01 T01850001  RH  029%=      5-min Rain = 0
KAI1 181747Z 26025KT 19/00 A2975 RMK A01 T01850001  RH  029%=      5-min Rain = 0
KAI1 181748Z 26023KT 19/00 A2975 RMK A01 T01860000  RH  029%=      5-min Rain = 0
KAI1 181749Z 26022KT 19/00 A2975 RMK A01 T01870002  RH  029%=      5-min Rain = 0
KAI1 181750Z 26026G34KT 19/00 A2975 RMK A01 T01880003  RH  029%=      5-min Rain = 0
KAI1 181751Z 26030KT 19/00 A2974 RMK A01 T01860001  RH  029%=      5-min Rain = 0
KAI1 181752Z 25026G33KT 18/00 A2974 RMK A01 T01840001  RH  029%=      5-min Rain = 0
KAI1 181753Z 25028KT 19/00 A2974 RMK A01 T01850003  RH  029%=      5-min Rain = 0
KAI1 181754Z 26026G33KT 19/00 A2974 RMK A01 T01850002  RH  029%=      5-min Rain = 0
KAI1 181755Z 26028G33KT 19/00 A2974 RMK A01 T01860003  RH  029%=      5-min Rain = 0
KAI1 181756Z 26022G28KT 19/00 A2974 RMK A01 T01860003  RH  029%=      5-min Rain = 0
KAI1 181757Z 25026G34KT 19/01 A2974 RMK A01 T01880005  RH  029%=      5-min Rain = 0
KAI1 181758Z 25029G35KT 19/01 A2974 RMK A01 T01890005  RH  029%=      5-min Rain = 0
KAI1 181759Z 26029G34KT 19/00 A2974 RMK A01 T01880003  RH  029%=      5-min Rain = 0
KAI1 181800Z 25030G35KT 19/00 A2974 RMK A01 T01860004  RH  029%=      5-min Rain = 0
KAI1 181801Z 25028G35KT 19/00 A2973 RMK A01 T01860004  RH  029%=      5-min Rain = 0
KAI1 181802Z 25027G33KT 19/01 A2974 RMK A01 T01860005  RH  029%=      5-min Rain = 0
KAI1 181803Z 25026G31KT 19/01 A2973 RMK A01 T01870005  RH  029%=      5-min Rain = 0
KAI1 181804Z 26026G31KT 19/00 A2973 RMK A01 T01870004  RH  029%=      5-min Rain = 0
KAI1 181805Z 26021KT 19/01 A2973 RMK A01 T01860005  RH  029%=      5-min Rain = 0
KAI1 181806Z 24023G34KT 19/01 A2973 RMK A01 T01890008  RH  030%=      5-min Rain = 0
KAI1 181807Z 24027KT 19/01 A2972 RMK A01 T01890005  RH  029%=      5-min Rain = 0
KAI1 181808Z 25031KT 19/01 A2972 RMK A01 T01870005  RH  029%=      5-min Rain = 0
KAI1 181809Z 26031KT 19/00 A2972 RMK A01 T01860004  RH  029%=      5-min Rain = 0
KAI1 181810Z 26029G36KT 18/00 A2972 RMK A01 T01840004  RH  030%=      5-min Rain = 0
KAI1 181811Z 26029G35KT 18/01 A2972 RMK A01 T01840005  RH  030%=      5-min Rain = 0
KAI1 181812Z 26030G35KT 19/01 A2972 RMK A01 T01850006  RH  030%=      5-min Rain = 0
KAI1 181813Z 26026G31KT 18/01 A2972 RMK A01 T01840006  RH  030%=      5-min Rain = 0
KAI1 181814Z 26030G36KT 18/01 A2972 RMK A01 T01840006  RH  030%=      5-min Rain = 0
KAI1 181815Z 24028G36KT 19/01 A2972 RMK A01 T01850007  RH  030%=      5-min Rain = 0
KAI1 181816Z 24031KT 19/01 A2972 RMK A01 T01860006  RH  030%=      5-min Rain = 0
KAI1 181817Z 26033G39KT 19/01 A2972 RMK A01 T01850007  RH  030%=      5-min Rain = 0
KAI1 181818Z 26025G30KT 19/01 A2972 RMK A01 T01850006  RH  030%=      5-min Rain = 0
KAI1 181819Z 25026KT 19/01 A2972 RMK A01 T01870008  RH  030%=      5-min Rain = 0
KAI1 181820Z 26029G34KT 19/01 A2972 RMK A01 T01880008  RH  030%=      5-min Rain = 0
KAI1 181821Z 26029G36KT 19/01 A2971 RMK A01 T01880008  RH  030%=      5-min Rain = 0
KAI1 181822Z 26027G33KT 19/01 A2971 RMK A01 T01870006  RH  030%=      5-min Rain = 0
KAI1 181823Z 25026G32KT 19/01 A2972 RMK A01 T01870009  RH  030%=      5-min Rain = 0
KAI1 181824Z 26029G35KT 19/01 A2971 RMK A01 T01890009  RH  030%=      5-min Rain = 0
KAI1 181825Z 26029G36KT 19/01 A2971 RMK A01 T01890007  RH  030%=      5-min Rain = 0
KAI1 181826Z 25028G33KT 19/01 A2971 RMK A01 T01880008  RH  030%=      5-min Rain = 0
KAI1 181827Z 25030G36KT 19/01 A2971 RMK A01 T01890006  RH  029%=      5-min Rain = 0
KAI1 181828Z 25027G35KT 19/01 A2971 RMK A01 T01880006  RH  029%=      5-min Rain = 0
KAI1 181829Z 27030KT 19/01 A2971 RMK A01 T01890008  RH  030%=      5-min Rain = 0
KAI1 181830Z 26031G36KT 19/01 A2971 RMK A01 T01900007  RH  029%=      5-min Rain = 0
KAI1 181831Z 26029KT 19/01 A2971 RMK A01 T01890007  RH  029%=      5-min Rain = 0
KAI1 181832Z 27027G38KT 19/01 A2971 RMK A01 T01890008  RH  030%=      5-min Rain = 0
KAI1 181833Z 26033KT 19/01 A297 RMK A01 T01890006  RH  029%=      5-min Rain = 0
KAI1 181834Z 27028KT 19/01 A2971 RMK A01 T01890005  RH  029%=      5-min Rain = 0
KAI1 181835Z 26027G32KT 19/01 A2971 RMK A01 T01890007  RH  029%=      5-min Rain = 0
KAI1 181836Z 25028G33KT 19/01 A297 RMK A01 T01910008  RH  029%=      5-min Rain = 0
KAI1 181837Z 25027G33KT 19/01 A297 RMK A01 T01910007  RH  029%=      5-min Rain = 0
KAI1 181838Z 26030G38KT 19/01 A297 RMK A01 T01920008  RH  029%=      5-min Rain = 0
KAI1 181839Z 26030G36KT 19/01 A297 RMK A01 T01920008  RH  029%=      5-min Rain = 0
KAI1 181840Z 26030G35KT 19/01 A297 RMK A01 T01920007  RH  029%=      5-min Rain = 0
KAI1 181841Z 26026G31KT 19/01 A297 RMK A01 T01900006  RH  029%=      5-min Rain = 0
KAI1 181842Z 26028G33KT 19/01 A2969 RMK A01 T01900007  RH  029%=      5-min Rain = 0
KAI1 181843Z 26026G32KT 19/01 A2969 RMK A01 T01920007  RH  029%=      5-min Rain = 0
KAI1 181844Z 26029G34KT 19/01 A2969 RMK A01 T01910007  RH  029%=      5-min Rain = 0
KAI1 181845Z 26026G34KT 19/01 A2969 RMK A01 T01910008  RH  029%=      5-min Rain = 0
KAI1 181846Z 26030G36KT 19/01 A2969 RMK A01 T01930008  RH  029%=      5-min Rain = 0
KAI1 181847Z 26029G34KT 19/01 A2969 RMK A01 T01930007  RH  029%=      5-min Rain = 0
KAI1 181848Z 26031G38KT 19/01 A2969 RMK A01 T01940008  RH  029%=      5-min Rain = 0
KAI1 181849Z 26032G37KT 19/01 A2969 RMK A01 T01920007  RH  029%=      5-min Rain = 0
KAI1 181850Z 27024G31KT 19/01 A297 RMK A01 T01890007  RH  029%=      5-min Rain = 0
KAI1 181851Z 26028G35KT 19/01 A2969 RMK A01 T01910009  RH  030%=      5-min Rain = 0
KAI1 181852Z 25032G39KT 19/01 A2969 RMK A01 T01920008  RH  029%=      5-min Rain = 0
KAI1 181853Z 25032G37KT 19/01 A2969 RMK A01 T01920008  RH  029%=      5-min Rain = 0
KAI1 181854Z 25031G37KT 19/01 A2969 RMK A01 T01920009  RH  029%=      5-min Rain = 0
KAI1 181855Z 26032KT 19/01 A2969 RMK A01 T01910008  RH  029%=      5-min Rain = 0
KAI1 181856Z 26031KT 19/01 A2969 RMK A01 T01900008  RH  030%=      5-min Rain = 0
KAI1 181857Z 26030KT 19/01 A2969 RMK A01 T01900009  RH  030%=      5-min Rain = 0
KAI1 181858Z 26030KT 19/01 A2969 RMK A01 T01890008  RH  030%=      5-min Rain = 0
KAI1 181859Z 26030KT 19/01 A2969 RMK A01 T01890009  RH  030%=      5-min Rain = 0
KAI1 181900Z 26030G36KT 19/01 A2969 RMK A01 T01890010  RH  030%=      5-min Rain = 0
KAI1 181901Z 26030KT 19/01 A2969 RMK A01 T01890010  RH  030%=      5-min Rain = 0
KAI1 181902Z 27026G31KT 19/01 A2969 RMK A01 T01900011  RH  030%=      5-min Rain = 0
KAI1 181903Z 27026KT 19/01 A2969 RMK A01 T01910011  RH  030%=      5-min Rain = 0
KAI1 181904Z 27030KT 19/01 A2969 RMK A01 T01930011  RH  030%=      5-min Rain = 0
KAI1 181905Z 27023G32KT 19/01 A2969 RMK A01 T01930011  RH  029%=      5-min Rain = 0
KAI1 181906Z 28030G36KT 20/01 A2968 RMK A01 T01950011  RH  029%=      5-min Rain = 0
KAI1 181907Z 27027G34KT 19/01 A2968 RMK A01 T01930009  RH  029%=      5-min Rain = 0
KAI1 181908Z 27028G35KT 19/01 A2968 RMK A01 T01910009  RH  030%=      5-min Rain = 0
KAI1 181909Z 27032G39KT 19/01 A2968 RMK A01 T01910009  RH  030%=      5-min Rain = 0
KAI1 181910Z 27031KT 19/01 A2968 RMK A01 T01900007  RH  029%=      5-min Rain = 0
KAI1 181911Z 26028KT 19/01 A2967 RMK A01 T01890006  RH  029%=      5-min Rain = 0
KAI1 181912Z 26028KT 19/01 A2967 RMK A01 T01890006  RH  029%=      5-min Rain = 0
KAI1 181913Z 26028G35KT 19/01 A2967 RMK A01 T01900007  RH  029%=      5-min Rain = 0
KAI1 181914Z 26027KT 19/01 A2967 RMK A01 T01900009  RH  030%=      5-min Rain = 0
KAI1 181915Z 27024G30KT 19/01 A2967 RMK A01 T01910011  RH  030%=      5-min Rain = 0
KAI1 181916Z 27027KT 19/01 A2967 RMK A01 T01940013  RH  030%=      5-min Rain = 0
KAI1 181917Z 26026G32KT 19/01 A2967 RMK A01 T01940012  RH  030%=      5-min Rain = 0
KAI1 181918Z 27029G35KT 19/01 A2966 RMK A01 T01930010  RH  029%=      5-min Rain = 0
KAI1 181919Z 27030G37KT 19/01 A2967 RMK A01 T01920011  RH  030%=      5-min Rain = 0
KAI1 181920Z 27028G33KT 19/01 A2966 RMK A01 T01920010  RH  030%=      5-min Rain = 0
KAI1 181921Z 26031G37KT 19/01 A2966 RMK A01 T01910011  RH  030%=      5-min Rain = 0
KAI1 181922Z 26029G34KT 19/01 A2966 RMK A01 T01910010  RH  030%=      5-min Rain = 0
KAI1 181923Z 27031G38KT 19/01 A2966 RMK A01 T01900009  RH  030%=      5-min Rain = 0
KAI1 181924Z 26027G33KT 19/01 A2967 RMK A01 T01890007  RH  029%=      5-min Rain = 0
KAI1 181925Z 26029KT 19/01 A2966 RMK A01 T01900008  RH  029%=      5-min Rain = 0
KAI1 181926Z 26026G32KT 19/01 A2967 RMK A01 T01890007  RH  029%=      5-min Rain = 0
KAI1 181927Z 27029G34KT 19/01 A2966 RMK A01 T01890008  RH  030%=      5-min Rain = 0
KAI1 181928Z 27027G32KT 19/01 A2967 RMK A01 T01890008  RH  030%=      5-min Rain = 0
KAI1 181929Z 27031KT 19/01 A2966 RMK A01 T01900010  RH  030%=      5-min Rain = 0
KAI1 181930Z 27030KT 19/01 A2967 RMK A01 T01900010  RH  030%=      5-min Rain = 0
KAI1 181931Z 27029KT 19/01 A2967 RMK A01 T01890010  RH  030%=      5-min Rain = 0
KAI1 181932Z 27026G32KT 19/01 A2967 RMK A01 T01900012  RH  030%=      5-min Rain = 0
KAI1 181933Z 27030G38KT 19/01 A2967 RMK A01 T01920011  RH  030%=      5-min Rain = 0
KAI1 181934Z 26031G39KT 19/01 A2967 RMK A01 T01920010  RH  030%=      5-min Rain = 0
KAI1 181935Z 27031G37KT 19/01 A2967 RMK A01 T01900009  RH  030%=      5-min Rain = 0
KAI1 181936Z 27023KT 19/01 A2967 RMK A01 T01900010  RH  030%=      5-min Rain = 0
KAI1 181937Z 27028G34KT 19/01 A2967 RMK A01 T01920009  RH  029%=      5-min Rain = 0
KAI1 181938Z 27030G35KT 19/01 A2967 RMK A01 T01910007  RH  029%=      5-min Rain = 0
KAI1 181939Z 26031KT 19/01 A2967 RMK A01 T01900007  RH  029%=      5-min Rain = 0
KAI1 181940Z 26030G35KT 19/01 A2966 RMK A01 T01890007  RH  029%=      5-min Rain = 0
KAI1 181941Z 26032KT 19/01 A2966 RMK A01 T01880008  RH  030%=      5-min Rain = 0
KAI1 181942Z 26032G38KT 19/01 A2966 RMK A01 T01880008  RH  030%=      5-min Rain = 0
KAI1 181943Z 27031G37KT 19/01 A2966 RMK A01 T01880007  RH  030%=      5-min Rain = 0
KAI1 181944Z 27029G34KT 19/01 A2966 RMK A01 T01880007  RH  030%=      5-min Rain = 0
KAI1 181945Z 27027G32KT 19/01 A2966 RMK A01 T01880005  RH  029%=      5-min Rain = 0
KAI1 181946Z 27030G37KT 19/00 A2966 RMK A01 T01900004  RH  029%=      5-min Rain = 0
KAI1 181947Z 27032KT 19/00 A2966 RMK A01 T01890001  RH  028%=      5-min Rain = 0
KAI1 181948Z 27028G33KT 19/00 A2966 RMK A01 T01880003  RH  029%=      5-min Rain = 0
KAI1 181949Z 27031KT 19/00 A2965 RMK A01 T01870002  RH  029%=      5-min Rain = 0
KAI1 181950Z 26027KT 19/00 A2965 RMK A01 T01880001  RH  029%=      5-min Rain = 0
KAI1 181951Z 27026G31KT 19/00 A2965 RMK A01 T01890002  RH  029%=      5-min Rain = 0
KAI1 181952Z 27031G37KT 19/01 A2965 RMK A01 T01900005  RH  029%=      5-min Rain = 0
KAI1 181953Z 27029G35KT 19/00 A2965 RMK A01 T01880004  RH  029%=      5-min Rain = 0
KAI1 181954Z 27032G37KT 19/01 A2965 RMK A01 T01880005  RH  029%=      5-min Rain = 0
KAI1 181955Z 26025G30KT 19/00 A2965 RMK A01 T01880003  RH  029%=      5-min Rain = 0
KAI1 181956Z 27032G38KT 19/00 A2965 RMK A01 T01880004  RH  029%=      5-min Rain = 0
KAI1 181957Z 27029G35KT 19/00 A2965 RMK A01 T01880004  RH  029%=      5-min Rain = 0
KAI1 181958Z 26029KT 19/01 A2965 RMK A01 T01870005  RH  029%=      5-min Rain = 0
KAI1 181959Z 26029G36KT 19/01 A2965 RMK A01 T01870007  RH  030%=      5-min Rain = 0
KAI1 182000Z 25030G36KT 19/01 A2965 RMK A01 T01880006  RH  030%=      5-min Rain = 0
KAI1 182001Z 26029G34KT 19/01 A2965 RMK A01 T01860006  RH  030%=      5-min Rain = 0
KAI1 182002Z 25031G36KT 19/01 A2964 RMK A01 T01870008  RH  030%=      5-min Rain = 0
KAI1 182003Z 25034KT 19/01 A2964 RMK A01 T01870007  RH  030%=      5-min Rain = 0
KAI1 182004Z 26030G35KT 19/01 A2964 RMK A01 T01860005  RH  030%=      5-min Rain = 0
KAI1 182005Z 26031KT 19/01 A2964 RMK A01 T01860006  RH  030%=      5-min Rain = 0
KAI1 182006Z 26025G31KT 19/01 A2965 RMK A01 T01860006  RH  030%=      5-min Rain = 0
KAI1 182007Z 25029KT 19/01 A2964 RMK A01 T01870007  RH  030%=      5-min Rain = 0
KAI1 182008Z 26030G36KT 19/01 A2964 RMK A01 T01870007  RH  030%=      5-min Rain = 0
KAI1 182009Z 26029G35KT 19/01 A2965 RMK A01 T01880008  RH  030%=      5-min Rain = 0
KAI1 182010Z 26027KT 19/01 A2964 RMK A01 T01870009  RH  030%=      5-min Rain = 0
KAI1 182011Z 26027G37KT 19/01 A2964 RMK A01 T01870011  RH  031%=      5-min Rain = 0
KAI1 182012Z 25031G37KT 19/01 A2964 RMK A01 T01880010  RH  030%=      5-min Rain = 0
KAI1 182013Z 25029KT 19/01 A2964 RMK A01 T01870009  RH  030%=      5-min Rain = 0
KAI1 182014Z 25030G35KT 19/01 A2964 RMK A01 T01870009  RH  030%=      5-min Rain = 0
KAI1 182015Z 25032KT 19/01 A2964 RMK A01 T01870009  RH  030%=      5-min Rain = 0
KAI1 182016Z 26028G33KT 19/01 A2964 RMK A01 T01850009  RH  031%=      5-min Rain = 0
KAI1 182017Z 26029G36KT 19/01 A2964 RMK A01 T01860011  RH  031%=      5-min Rain = 0
KAI1 182018Z 26027G32KT 19/01 A2964 RMK A01 T01860010  RH  031%=      5-min Rain = 0
KAI1 182019Z 26025G31KT 19/01 A2964 RMK A01 T01860012  RH  031%=      5-min Rain = 0
KAI1 182020Z 25028KT 19/01 A2964 RMK A01 T01870011  RH  031%=      5-min Rain = 0
KAI1 182021Z 25025KT 19/01 A2964 RMK A01 T01870011  RH  031%=      5-min Rain = 0
KAI1 182022Z 26023G28KT 19/01 A2965 RMK A01 T01870012  RH  031%=      5-min Rain = 0
KAI1 182023Z 26020G26KT 19/01 A2965 RMK A01 T01900014  RH  031%=      5-min Rain = 0
KAI1 182024Z 26026G31KT 19/01 A2965 RMK A01 T01930014  RH  030%=      5-min Rain = 0
KAI1 182025Z 25026G31KT 19/01 A2964 RMK A01 T01920012  RH  030%=      5-min Rain = 0
KAI1 182026Z 25024KT 19/01 A2965 RMK A01 T01920014  RH  030%=      5-min Rain = 0
KAI1 182027Z 26024G30KT 19/01 A2965 RMK A01 T01920014  RH  030%=      5-min Rain = 0
KAI1 182028Z 26021G26KT 19/01 A2965 RMK A01 T01910014  RH  031%=      5-min Rain = 0
KAI1 182029Z 26030G35KT 19/01 A2964 RMK A01 T01930014  RH  030%=      5-min Rain = 0
KAI1 182030Z 26024G30KT 19/01 A2965 RMK A01 T01920013  RH  030%=      5-min Rain = 0
KAI1 182031Z 26026G32KT 19/01 A2964 RMK A01 T01920014  RH  030%=      5-min Rain = 0
KAI1 182032Z 25027KT 19/01 A2964 RMK A01 T01920013  RH  030%=      5-min Rain = 0
KAI1 182033Z 25030G35KT 19/01 A2964 RMK A01 T01910011  RH  030%=      5-min Rain = 0
KAI1 182034Z 26028KT 19/01 A2964 RMK A01 T01910010  RH  030%=      5-min Rain = 0
KAI1 182035Z 25026G31KT 19/01 A2964 RMK A01 T01900010  RH  030%=      5-min Rain = 0
KAI1 182036Z 26024G32KT 19/01 A2964 RMK A01 T01900010  RH  030%=      5-min Rain = 0
KAI1 182037Z 26028G35KT 19/01 A2964 RMK A01 T01920009  RH  029%=      5-min Rain = 0
KAI1 182038Z 25023KT 19/01 A2964 RMK A01 T01930005  RH  028%=      5-min Rain = 0
KAI1 182039Z 25024KT 19/00 A2964 RMK A01 T01940004  RH  028%=      5-min Rain = 0
KAI1 182040Z 25026G35KT 19/01 A2964 RMK A01 T01940005  RH  028%=      5-min Rain = 0
KAI1 182041Z 26029G36KT 20/00 A2964 RMK A01 T01950003  RH  028%=      5-min Rain = 0
KAI1 182042Z 26030G35KT 19/M00 A2964 RMK A01 T01931001  RH  027%=      5-min Rain = 0
KAI1 182043Z 26029G36KT 19/M00 A2964 RMK A01 T01921001  RH  027%=      5-min Rain = 0
KAI1 182044Z 26026G31KT 19/00 A2964 RMK A01 T01920002  RH  028%=      5-min Rain = 0
KAI1 182045Z 25027KT 19/00 A2964 RMK A01 T01930004  RH  028%=      5-min Rain = 0
KAI1 182046Z 25027KT 19/00 A2964 RMK A01 T01920004  RH  028%=      5-min Rain = 0
KAI1 182047Z 26025G31KT 19/01 A2964 RMK A01 T01910005  RH  029%=      5-min Rain = 0
KAI1 182048Z 26026G35KT 19/01 A2964 RMK A01 T01910007  RH  029%=      5-min Rain = 0
KAI1 182049Z 26028G35KT 19/01 A2964 RMK A01 T01910009  RH  029%=      5-min Rain = 0
KAI1 182050Z 26029G35KT 19/01 A2964 RMK A01 T01890007  RH  029%=      5-min Rain = 0
KAI1 182051Z 25029G37KT 19/01 A2964 RMK A01 T01870007  RH  030%=      5-min Rain = 0
KAI1 182052Z 25030G37KT 19/01 A2964 RMK A01 T01850008  RH  030%=      5-min Rain = 0
KAI1 182053Z 25026G31KT 18/01 A2964 RMK A01 T01840009  RH  031%=      5-min Rain = 0
KAI1 182054Z 26028G34KT 18/01 A2964 RMK A01 T01840009  RH  031%=      5-min Rain = 0
KAI1 182055Z 26030KT 18/01 A2964 RMK A01 T01830006  RH  030%=      5-min Rain = 0
KAI1 182056Z 27028G35KT 18/01 A2964 RMK A01 T01800005  RH  031%=      5-min Rain = 0
KAI1 182057Z 26031G36KT 18/00 A2964 RMK A01 T01790001  RH  030%=      5-min Rain = 0
KAI1 182058Z 26032G38KT 18/00 A2964 RMK A01 T01780001  RH  030%=      5-min Rain = 0
KAI1 182059Z 26031KT 18/00 A2964 RMK A01 T01770001  RH  030%=      5-min Rain = 0
KAI1 182100Z 26027KT 18/00 A2964 RMK A01 T017600-0  RH  030%=      5-min Rain = 0
KAI1 182101Z 27027KT 18/M00 A2964 RMK A01 T01761001  RH  030%=      5-min Rain = 0
KAI1 182102Z 26030KT 18/M00 A2964 RMK A01 T01751001  RH  030%=      5-min Rain = 0
KAI1 182103Z 26028KT 18/00 A2964 RMK A01 T017500-0  RH  031%=      5-min Rain = 0
KAI1 182104Z 26028KT 18/00 A2964 RMK A01 T01750002  RH  031%=      5-min Rain = 0
KAI1 182105Z 27023G28KT 18/00 A2965 RMK A01 T01750003  RH  031%=      5-min Rain = 0
KAI1 182106Z 26025G32KT 18/01 A2965 RMK A01 T01750005  RH  032%=      5-min Rain = 0
KAI1 182107Z 26030KT 18/01 A2965 RMK A01 T01750008  RH  032%=      5-min Rain = 0
KAI1 182108Z 26030KT 17/01 A2965 RMK A01 T01740009  RH  033%=      5-min Rain = 0
KAI1 182109Z 26027KT 17/01 A2965 RMK A01 T01730010  RH  033%=      5-min Rain = 0
KAI1 182110Z 26027G32KT 17/01 A2965 RMK A01 T01720010  RH  033%=      5-min Rain = 0
KAI1 182111Z 25030KT 17/01 A2965 RMK A01 T01720010  RH  034%=      5-min Rain = 0
KAI1 182112Z 26029KT 17/01 A2965 RMK A01 T01710006  RH  033%=      5-min Rain = 0
KAI1 182113Z 26028G33KT 17/00 A2965 RMK A01 T01710004  RH  032%=      5-min Rain = 0
KAI1 182114Z 26029KT 17/00 A2965 RMK A01 T01700004  RH  032%=      5-min Rain = 0
KAI1 182115Z 26028G34KT 17/01 A2965 RMK A01 T01700007  RH  033%=      5-min Rain = 0
KAI1 182116Z 26023G28KT 17/01 A2965 RMK A01 T01700010  RH  034%=      5-min Rain = 0
KAI1 182117Z 25025G30KT 17/01 A2965 RMK A01 T01690010  RH  034%=      5-min Rain = 0
KAI1 182118Z 26025G33KT 17/01 A2965 RMK A01 T01690010  RH  034%=      5-min Rain = 0
KAI1 182119Z 25025G30KT 17/01 A2965 RMK A01 T01690010  RH  034%=      5-min Rain = 0
KAI1 182120Z 25025KT 17/01 A2965 RMK A01 T01690009  RH  034%=      5-min Rain = 0
KAI1 182121Z 26028G33KT 17/01 A2965 RMK A01 T01680007  RH  034%=      5-min Rain = 0
KAI1 182122Z 25029G35KT 17/01 A2965 RMK A01 T01680006  RH  033%=      5-min Rain = 0
KAI1 182123Z 26024G31KT 17/01 A2965 RMK A01 T01680006  RH  033%=      5-min Rain = 0
KAI1 182124Z 25021KT 17/01 A2965 RMK A01 T01670006  RH  034%=      5-min Rain = 0
KAI1 182125Z 26021G27KT 17/01 A2965 RMK A01 T01670007  RH  034%=      5-min Rain = 0
KAI1 182126Z 25018KT 17/01 A2965 RMK A01 T01670008  RH  034%=      5-min Rain = 0
KAI1 182127Z 25022KT 17/01 A2965 RMK A01 T01680008  RH  034%=      5-min Rain = 0
KAI1 182128Z 25028G35KT 17/01 A2964 RMK A01 T01680007  RH  034%=      5-min Rain = 0
KAI1 182129Z 25030KT 17/01 A2964 RMK A01 T01690006  RH  033%=      5-min Rain = 0
KAI1 182130Z 25027G33KT 17/01 A2965 RMK A01 T01690005  RH  033%=      5-min Rain = 0
KAI1 182131Z 25026G31KT 17/00 A2965 RMK A01 T01690004  RH  033%=      5-min Rain = 0
KAI1 182132Z 25025KT 17/00 A2965 RMK A01 T01700004  RH  033%=      5-min Rain = 0
KAI1 182133Z 25029KT 17/01 A2964 RMK A01 T01730005  RH  032%=      5-min Rain = 0
KAI1 182134Z 25029G35KT 18/00 A2964 RMK A01 T01760003  RH  031%=      5-min Rain = 0
KAI1 182135Z 26028G34KT 18/01 A2964 RMK A01 T01800005  RH  031%=      5-min Rain = 0
KAI1 182136Z 26026G31KT 18/00 A2964 RMK A01 T01820003  RH  030%=      5-min Rain = 0
KAI1 182137Z 26028G34KT 18/01 A2964 RMK A01 T01840006  RH  030%=      5-min Rain = 0
KAI1 182138Z 26030G35KT 18/00 A2964 RMK A01 T01840004  RH  030%=      5-min Rain = 0
KAI1 182139Z 25027KT 18/00 A2964 RMK A01 T01790002  RH  030%=      5-min Rain = 0
KAI1 182140Z 25029KT 18/00 A2964 RMK A01 T01760002  RH  031%=      5-min Rain = 0
KAI1 182141Z 25027G34KT 17/00 A2964 RMK A01 T01740002  RH  031%=      5-min Rain = 0
KAI1 182142Z 25028KT 17/00 A2964 RMK A01 T01730002  RH  031%=      5-min Rain = 0
KAI1 182143Z 26030KT 17/00 A2964 RMK A01 T01730003  RH  032%=      5-min Rain = 0
KAI1 182144Z 25027G32KT 17/01 A2964 RMK A01 T01740007  RH  032%=      5-min Rain = 0
KAI1 182145Z 26031G36KT 18/01 A2964 RMK A01 T01770008  RH  032%=      5-min Rain = 0
KAI1 182146Z 25029G36KT 18/01 A2964 RMK A01 T01760008  RH  032%=      5-min Rain = 0
KAI1 182147Z 25027KT 18/01 A2964 RMK A01 T01760008  RH  032%=      5-min Rain = 0
KAI1 182148Z 25027G33KT 18/01 A2964 RMK A01 T01760008  RH  032%=      5-min Rain = 0
KAI1 182149Z 25022G27KT 18/01 A2964 RMK A01 T01770009  RH  032%=      5-min Rain = 0
KAI1 182150Z 25026G32KT 18/01 A2964 RMK A01 T01800009  RH  032%=      5-min Rain = 0
KAI1 182151Z 26026KT 18/01 A2964 RMK A01 T01790006  RH  031%=      5-min Rain = 0
KAI1 182152Z 26023G28KT 18/01 A2964 RMK A01 T01770005  RH  031%=      5-min Rain = 0
KAI1 182153Z 26026G32KT 18/01 A2965 RMK A01 T01760005  RH  032%=      5-min Rain = 0
KAI1 182154Z 26027KT 17/00 A2964 RMK A01 T01730001  RH  031%=      5-min Rain = 0
KAI1 182155Z 26026G35KT 17/M00 A2964 RMK A01 T01701001  RH  031%=      5-min Rain = 0
KAI1 182156Z 26027G33KT 17/M00 A2964 RMK A01 T01701001  RH  031%=      5-min Rain = 0
KAI1 182157Z 25023G32KT 17/M00 A2964 RMK A01 T01701001  RH  031%=      5-min Rain = 0
KAI1 182158Z 26027G32KT 17/00 A2964 RMK A01 T01720001  RH  031%=      5-min Rain = 0
KAI1 182159Z 26027G32KT 18/00 A2964 RMK A01 T01750001  RH  031%=      5-min Rain = 0
KAI1 182200Z 26030KT 18/M00 A2964 RMK A01 T01761001  RH  030%=      5-min Rain = 0
KAI1 182201Z 27027G32KT 18/M00 A2964 RMK A01 T01771002  RH  030%=      5-min Rain = 0
KAI1 182202Z 27029G35KT 18/M00 A2964 RMK A01 T01771003  RH  030%=      5-min Rain = 0
KAI1 182203Z 27029G35KT 18/M00 A2964 RMK A01 T01751004  RH  030%=      5-min Rain = 0
KAI1 182204Z 27033KT 17/M01 A2964 RMK A01 T01731005  RH  030%=      5-min Rain = 0
KAI1 182205Z 26030G36KT 17/M00 A2964 RMK A01 T01701004  RH  031%=      5-min Rain = 0
KAI1 182206Z 26028G33KT 17/M01 A2964 RMK A01 T01691006  RH  030%=      5-min Rain = 0
KAI1 182207Z 27024G30KT 17/M01 A2964 RMK A01 T01681006  RH  031%=      5-min Rain = 0
KAI1 182208Z 26029G34KT 17/M00 A2964 RMK A01 T01681004  RH  031%=      5-min Rain = 0
KAI1 182209Z 26026G31KT 17/M00 A2964 RMK A01 T01681003  RH  031%=      5-min Rain = 0
KAI1 182210Z 26028G35KT 17/M01 A2964 RMK A01 T01671005  RH  031%=      5-min Rain = 0
KAI1 182211Z 26029KT 17/M00 A2964 RMK A01 T01661004  RH  031%=      5-min Rain = 0
KAI1 182212Z 26028G34KT 17/M01 A2964 RMK A01 T01651005  RH  031%=      5-min Rain = 0
KAI1 182213Z 26028KT 16/M00 A2964 RMK A01 T01641004  RH  032%=      5-min Rain = 0
KAI1 182214Z 26023G28KT 16/M00 A2965 RMK A01 T01631004  RH  032%=      5-min Rain = 0
KAI1 182215Z 26028G34KT 16/M00 A2965 RMK A01 T01631002  RH  032%=      5-min Rain = 0
KAI1 182216Z 26027G32KT 16/M00 A2965 RMK A01 T01631001  RH  033%=      5-min Rain = 0
KAI1 182217Z 26026KT 16/00 A2965 RMK A01 T01630000  RH  033%=      5-min Rain = 0
KAI1 182218Z 26027G34KT 16/00 A2965 RMK A01 T01620000  RH  033%=      5-min Rain = 0
KAI1 182219Z 26025KT 16/00 A2965 RMK A01 T01620000  RH  033%=      5-min Rain = 0
KAI1 182220Z 26026KT 16/00 A2965 RMK A01 T01610000  RH  033%=      5-min Rain = 0
KAI1 182221Z 26028G33KT 16/00 A2965 RMK A01 T01610000  RH  033%=      5-min Rain = 0
KAI1 182222Z 26027KT 16/00 A2964 RMK A01 T016100-0  RH  033%=      5-min Rain = 0
KAI1 182223Z 25026G32KT 16/00 A2965 RMK A01 T016000-0  RH  033%=      5-min Rain = 0
KAI1 182224Z 25025KT 16/00 A2965 RMK A01 T016000-0  RH  034%=      5-min Rain = 0
KAI1 182225Z 25022G28KT 16/00 A2965 RMK A01 T01600000  RH  034%=      5-min Rain = 0
KAI1 182226Z 25025KT 16/00 A2965 RMK A01 T01590001  RH  034%=      5-min Rain = 0
KAI1 182227Z 25021KT 16/00 A2965 RMK A01 T01590001  RH  034%=      5-min Rain = 0
KAI1 182228Z 25024KT 16/00 A2965 RMK A01 T01590001  RH  034%=      5-min Rain = 0
KAI1 182229Z 25023KT 16/M00 A2965 RMK A01 T01581001  RH  034%=      5-min Rain = 0
KAI1 182230Z 26023G29KT 16/M00 A2965 RMK A01 T01581001  RH  034%=      5-min Rain = 0
KAI1 182231Z 25022KT 16/M00 A2965 RMK A01 T01581002  RH  034%=      5-min Rain = 0
KAI1 182232Z 26019KT 16/M00 A2965 RMK A01 T01581001  RH  034%=      5-min Rain = 0
KAI1 182233Z 26022G27KT 16/M00 A2965 RMK A01 T01581001  RH  034%=      5-min Rain = 0
KAI1 182234Z 26023KT 16/M00 A2965 RMK A01 T01581003  RH  033%=      5-min Rain = 0
KAI1 182235Z 26021KT 16/M00 A2965 RMK A01 T01581003  RH  033%=      5-min Rain = 0
KAI1 182236Z 26021KT 16/M00 A2965 RMK A01 T01581004  RH  033%=      5-min Rain = 0
KAI1 182237Z 26018G23KT 16/M01 A2965 RMK A01 T01581005  RH  033%=      5-min Rain = 0
KAI1 182238Z 26021G27KT 16/M01 A2965 RMK A01 T01581006  RH  033%=      5-min Rain = 0
KAI1 182239Z 27021KT 16/M01 A2965 RMK A01 T01591006  RH  032%=      5-min Rain = 0
KAI1 182240Z 26021KT 16/M01 A2965 RMK A01 T01591007  RH  032%=      5-min Rain = 0
KAI1 182241Z 27018KT 16/M01 A2965 RMK A01 T01591007  RH  032%=      5-min Rain = 0
KAI1 182242Z 27017KT 16/M01 A2965 RMK A01 T01581006  RH  032%=      5-min Rain = 0
KAI1 182243Z 27015G20KT 16/M01 A2966 RMK A01 T01581006  RH  032%=      5-min Rain = 0
KAI1 182244Z 27017KT 16/M01 A2966 RMK A01 T01581007  RH  032%=      5-min Rain = 0
KAI1 182245Z 27018KT 16/M01 A2966 RMK A01 T01581008  RH  032%=      5-min Rain = 0
KAI1 182246Z 27015KT 16/M01 A2966 RMK A01 T01581009  RH  032%=      5-min Rain = 0
KAI1 182247Z 27016KT 16/M01 A2966 RMK A01 T01581010  RH  032%=      5-min Rain = 0
KAI1 182248Z 27017KT 16/M01 A2966 RMK A01 T01571012  RH  031%=      5-min Rain = 0
KAI1 182249Z 27022KT 16/M01 A2965 RMK A01 T01571013  RH  031%=      5-min Rain = 0
KAI1 182250Z 27021KT 16/M01 A2965 RMK A01 T01581014  RH  031%=      5-min Rain = 0
KAI1 182251Z 27019KT 16/M01 A2966 RMK A01 T01591013  RH  031%=      5-min Rain = 0
KAI1 182252Z 28019KT 16/M01 A2966 RMK A01 T01591013  RH  031%=      5-min Rain = 0
KAI1 182253Z 28019KT 16/M01 A2966 RMK A01 T01591013  RH  031%=      5-min Rain = 0
KAI1 182254Z 28019KT 16/M01 A2966 RMK A01 T01581013  RH  031%=      5-min Rain = 0
KAI1 182255Z 28016KT 16/M02 A2966 RMK A01 T01591015  RH  030%=      5-min Rain = 0
KAI1 182256Z 28017KT 16/M02 A2966 RMK A01 T01591015  RH  030%=      5-min Rain = 0
KAI1 182257Z 28014KT 16/M02 A2966 RMK A01 T01581015  RH  030%=      5-min Rain = 0
KAI1 182258Z 28017KT 16/M02 A2966 RMK A01 T01581016  RH  030%=      5-min Rain = 0
KAI1 182259Z 28018KT 16/M02 A2966 RMK A01 T01571021  RH  030%=      5-min Rain = 0
KAI1 182300Z 27016KT 16/M02 A2966 RMK A01 T01571022  RH  029%=      5-min Rain = 0
KAI1 182301Z 28015KT 16/M02 A2966 RMK A01 T01561023  RH  029%=      5-min Rain = 0
KAI1 182302Z 28019KT 16/M02 A2966 RMK A01 T01561024  RH  029%=      5-min Rain = 0
KAI1 182303Z 27019KT 16/M03 A2966 RMK A01 T01551025  RH  029%=      5-min Rain = 0
KAI1 182304Z 27017KT 16/M03 A2966 RMK A01 T01551025  RH  029%=      5-min Rain = 0
KAI1 182305Z 27017G22KT 16/M03 A2966 RMK A01 T01551025  RH  029%=      5-min Rain = 0
KAI1 182306Z 27016KT 16/M03 A2966 RMK A01 T01551026  RH  029%=      5-min Rain = 0
KAI1 182307Z 27022G28KT 16/M03 A2966 RMK A01 T01551029  RH  028%=      5-min Rain = 0
KAI1 182308Z 28024G30KT 16/M04 A2966 RMK A01 T01551039  RH  026%=      5-min Rain = 0
KAI1 182309Z 28022KT 16/M04 A2966 RMK A01 T01561042  RH  025%=      5-min Rain = 0
KAI1 182310Z 28018KT 16/M04 A2966 RMK A01 T01561043  RH  025%=      5-min Rain = 0
KAI1 182311Z 28016KT 16/M04 A2966 RMK A01 T01551043  RH  025%=      5-min Rain = 0
KAI1 182312Z 28017KT 15/M04 A2965 RMK A01 T01541043  RH  025%=      5-min Rain = 0
KAI1 182313Z 28018KT 15/M04 A2965 RMK A01 T01531044  RH  025%=      5-min Rain = 0
KAI1 182314Z 28020G25KT 15/M05 A2965 RMK A01 T01531046  RH  025%=      5-min Rain = 0
KAI1 182315Z 28019KT 15/M05 A2966 RMK A01 T01541047  RH  025%=      5-min Rain = 0
KAI1 182316Z 28018KT 16/M05 A2966 RMK A01 T01551046  RH  025%=      5-min Rain = 0
KAI1 182317Z 28019KT 16/M05 A2966 RMK A01 T01561046  RH  025%=      5-min Rain = 0
KAI1 182318Z 27022G28KT 16/M05 A2966 RMK A01 T01571046  RH  024%=      5-min Rain = 0
KAI1 182319Z 27024KT 16/M05 A2966 RMK A01 T01581050  RH  024%=      5-min Rain = 0
KAI1 182320Z 27026G31KT 16/M05 A2966 RMK A01 T01581051  RH  023%=      5-min Rain = 0
KAI1 182321Z 27026G31KT 16/M05 A2965 RMK A01 T01581052  RH  023%=      5-min Rain = 0
KAI1 182322Z 28027G33KT 16/M05 A2965 RMK A01 T01581053  RH  023%=      5-min Rain = 0
KAI1 182323Z 27022G27KT 16/M05 A2966 RMK A01 T01591053  RH  023%=      5-min Rain = 0
KAI1 182324Z 27024KT 16/M05 A2965 RMK A01 T01591053  RH  023%=      5-min Rain = 0
KAI1 182325Z 28017G22KT 16/M05 A2965 RMK A01 T01581053  RH  023%=      5-min Rain = 0
KAI1 182326Z 28019G25KT 16/M05 A2965 RMK A01 T01591050  RH  023%=      5-min Rain = 0
KAI1 182327Z 28018KT 16/M05 A2965 RMK A01 T01591051  RH  023%=      5-min Rain = 0
KAI1 182328Z 28020KT 16/M05 A2965 RMK A01 T01581050  RH  023%=      5-min Rain = 0
KAI1 182329Z 28022KT 16/M05 A2965 RMK A01 T01571051  RH  023%=      5-min Rain = 0
KAI1 182330Z 27026KT 16/M05 A2965 RMK A01 T01561051  RH  024%=      5-min Rain = 0
KAI1 182331Z 27026KT 16/M05 A2965 RMK A01 T01561051  RH  024%=      5-min Rain = 0
KAI1 182332Z 28022KT 16/M05 A2966 RMK A01 T01551050  RH  024%=      5-min Rain = 0
KAI1 182333Z 27020G27KT 15/M05 A2966 RMK A01 T01541049  RH  024%=      5-min Rain = 0
KAI1 182334Z 28022KT 15/M05 A2966 RMK A01 T01531050  RH  024%=      5-min Rain = 0
KAI1 182335Z 27021KT 15/M05 A2966 RMK A01 T01521052  RH  024%=      5-min Rain = 0
KAI1 182336Z 27021G27KT 15/M05 A2966 RMK A01 T01511053  RH  024%=      5-min Rain = 0
KAI1 182337Z 27022KT 15/M05 A2966 RMK A01 T01501054  RH  024%=      5-min Rain = 0
KAI1 182338Z 27024G30KT 15/M06 A2966 RMK A01 T01491055  RH  024%=      5-min Rain = 0
KAI1 182339Z 27022KT 15/M06 A2967 RMK A01 T01491055  RH  024%=      5-min Rain = 0
KAI1 182340Z 27023KT 15/M06 A2967 RMK A01 T01481055  RH  024%=      5-min Rain = 0
KAI1 182341Z 27023G29KT 15/M06 A2966 RMK A01 T01471055  RH  024%=      5-min Rain = 0
KAI1 182342Z 27022KT 15/M05 A2967 RMK A01 T01471054  RH  024%=      5-min Rain = 0
KAI1 182343Z 27018KT 15/M05 A2967 RMK A01 T01471054  RH  025%=      5-min Rain = 0
KAI1 182344Z 27022KT 15/M05 A2966 RMK A01 T01451054  RH  025%=      5-min Rain = 0
KAI1 182345Z 27022KT 15/M05 A2966 RMK A01 T01451054  RH  025%=      5-min Rain = 0
KAI1 182346Z 27022G27KT 14/M05 A2966 RMK A01 T01441054  RH  025%=      5-min Rain = 0
KAI1 182347Z 27024KT 14/M06 A2966 RMK A01 T01441055  RH  025%=      5-min Rain = 0
KAI1 182348Z 27022KT 14/M06 A2967 RMK A01 T01441055  RH  025%=      5-min Rain = 0
KAI1 182349Z 27017KT 14/M05 A2967 RMK A01 T01431054  RH  025%=      5-min Rain = 0
KAI1 182350Z 27020G26KT 14/M05 A2967 RMK A01 T01421054  RH  025%=      5-min Rain = 0
KAI1 182351Z 27023G28KT 14/M05 A2967 RMK A01 T01401051  RH  026%=      5-min Rain = 0
KAI1 182352Z 27023KT 14/M05 A2967 RMK A01 T01401049  RH  027%=      5-min Rain = 0
KAI1 182353Z 27022KT 14/M05 A2967 RMK A01 T01401047  RH  027%=      5-min Rain = 0
KAI1 182354Z 27022KT 14/M05 A2966 RMK A01 T01401046  RH  027%=      5-min Rain = 0
KAI1 182355Z 27021G27KT 14/M04 A2967 RMK A01 T01391044  RH  028%=      5-min Rain = 0
KAI1 182356Z 27020KT 14/M04 A2967 RMK A01 T01381043  RH  028%=      5-min Rain = 0
KAI1 182357Z 27017G23KT 14/M04 A2967 RMK A01 T01371043  RH  028%=      5-min Rain = 0
KAI1 182358Z 27019KT 14/M04 A2966 RMK A01 T01361043  RH  029%=      5-min Rain = 0
KAI1 182359Z 27021KT 14/M04 A2966 RMK A01 T01351043  RH  029%=      5-min Rain = 0
KAI1 190000Z 27020KT 14/M04 A2967 RMK A01 T01361043  RH  029%=      5-min Rain = 0
KAI1 190001Z 27021KT 14/M04 A2967 RMK A01 T01361043  RH  029%=      5-min Rain = 0
KAI1 190002Z 27018KT 14/M04 A2967 RMK A01 T01351043  RH  029%=      5-min Rain = 0
KAI1 190003Z 27018KT 13/M04 A2967 RMK A01 T01341043  RH  029%=      5-min Rain = 0
KAI1 190004Z 27019KT 13/M04 A2966 RMK A01 T01331043  RH  029%=      5-min Rain = 0
KAI1 190005Z 27016G21KT 13/M04 A2966 RMK A01 T01331042  RH  029%=      5-min Rain = 0
KAI1 190006Z 27017KT 13/M04 A2966 RMK A01 T01311043  RH  030%=      5-min Rain = 0
KAI1 190007Z 27016KT 13/M04 A2966 RMK A01 T01311042  RH  030%=      5-min Rain = 0
KAI1 190008Z 27016KT 13/M04 A2966 RMK A01 T01301042  RH  030%=      5-min Rain = 0
KAI1 190009Z 27016KT 13/M04 A2966 RMK A01 T01291042  RH  030%=      5-min Rain = 0
KAI1 190010Z 27016KT 13/M04 A2967 RMK A01 T01291041  RH  030%=      5-min Rain = 0
KAI1 190011Z 27017KT 13/M04 A2967 RMK A01 T01291041  RH  030%=      5-min Rain = 0
KAI1 190012Z 27014KT 13/M04 A2967 RMK A01 T01281041  RH  031%=      5-min Rain = 0
KAI1 190013Z 27016KT 13/M04 A2967 RMK A01 T01261041  RH  031%=      5-min Rain = 0
KAI1 190014Z 27016KT 13/M04 A2967 RMK A01 T01261040  RH  031%=      5-min Rain = 0
KAI1 190015Z 27015KT 13/M04 A2967 RMK A01 T01261040  RH  031%=      5-min Rain = 0
KAI1 190016Z 27016KT 13/M04 A2966 RMK A01 T01251040  RH  031%=      5-min Rain = 0
KAI1 190017Z 27016KT 13/M04 A2966 RMK A01 T01251040  RH  031%=      5-min Rain = 0
KAI1 190018Z 27015KT 12/M04 A2966 RMK A01 T01241040  RH  031%=      5-min Rain = 0
KAI1 190019Z 27015KT 12/M04 A2966 RMK A01 T01231041  RH  032%=      5-min Rain = 0
KAI1 190020Z 27014KT 12/M04 A2966 RMK A01 T01221041  RH  032%=      5-min Rain = 0
KAI1 190021Z 27014KT 12/M04 A2966 RMK A01 T01221040  RH  032%=      5-min Rain = 0
KAI1 190022Z 27016KT 12/M04 A2966 RMK A01 T01231040  RH  032%=      5-min Rain = 0
KAI1 190023Z 27015KT 12/M04 A2966 RMK A01 T01221040  RH  032%=      5-min Rain = 0
KAI1 190024Z 27014KT 12/M04 A2966 RMK A01 T01221040  RH  032%=      5-min Rain = 0
KAI1 190025Z 27014KT 12/M04 A2966 RMK A01 T01201040  RH  032%=      5-min Rain = 0
KAI1 190026Z 26012KT 12/M04 A2967 RMK A01 T01201040  RH  032%=      5-min Rain = 0
KAI1 190027Z 27014KT 12/M04 A2967 RMK A01 T01181041  RH  033%=      5-min Rain = 0
KAI1 190028Z 27014KT 12/M04 A2967 RMK A01 T01181040  RH  033%=      5-min Rain = 0
KAI1 190029Z 27015KT 12/M04 A2967 RMK A01 T01181041  RH  033%=      5-min Rain = 0
KAI1 190030Z 27013KT 12/M04 A2967 RMK A01 T01191041  RH  033%=      5-min Rain = 0
KAI1 190031Z 27012KT 12/M04 A2967 RMK A01 T01171041  RH  033%=      5-min Rain = 0
KAI1 190032Z 27013KT 12/M04 A2967 RMK A01 T01161041  RH  033%=      5-min Rain = 0
KAI1 190033Z 27012KT 12/M04 A2967 RMK A01 T01161041  RH  033%=      5-min Rain = 0
KAI1 190034Z 27012KT 12/M04 A2967 RMK A01 T01151041  RH  033%=      5-min Rain = 0
KAI1 190035Z 27013KT 12/M04 A2967 RMK A01 T01151041  RH  033%=      5-min Rain = 0
KAI1 190036Z 27013KT 12/M04 A2967 RMK A01 T01151041  RH  033%=      5-min Rain = 0
KAI1 190037Z 28014KT 12/M04 A2967 RMK A01 T01151041  RH  033%=      5-min Rain = 0
KAI1 190038Z 29015KT 11/M04 A2967 RMK A01 T01141041  RH  034%=      5-min Rain = 0
KAI1 190039Z 30014KT 11/M04 A2967 RMK A01 T01131040  RH  034%=      5-min Rain = 0
KAI1 190040Z 30017KT 11/M04 A2967 RMK A01 T01121039  RH  034%=      5-min Rain = 0
KAI1 190041Z 30026G33KT 11/M04 A2967 RMK A01 T01131035  RH  035%=      5-min Rain = 0
KAI1 190042Z 32030G40KT 12/M03 A2968 RMK A01 T01151026  RH  037%=      5-min Rain = 0
KAI1 190043Z 35037KT 11/M02 A2969 RMK A01 T01081017  RH  042%=      5-min Rain = 0
KAI1 190044Z 36036G45KT 09/M01 A2969 RMK A01 T00941010  RH  048%=      5-min Rain = 0
KAI1 190045Z 35033G41KT 09/M01 A297 RMK A01 T00861008  RH  052%=      5-min Rain = 0
KAI1 190046Z 35033G39KT 08/M01 A297 RMK A01 T00811007  RH  053%=      5-min Rain = 0
KAI1 190047Z 36034G41KT 08/M01 A297 RMK A01 T00781007  RH  055%=      5-min Rain = 0
KAI1 190048Z 35036KT 08/M01 A2971 RMK A01 T00751007  RH  056%=      5-min Rain = 0
KAI1 190049Z 35031KT 07/M01 A2971 RMK A01 T00731006  RH  057%=      5-min Rain = 0
KAI1 190050Z 35028G35KT 07/M01 A2971 RMK A01 T00711006  RH  058%=      5-min Rain = 0
KAI1 190051Z 35037KT 07/M01 A2971 RMK A01 T00701006  RH  058%=      5-min Rain = 0
KAI1 190052Z 35034G41KT 07/M01 A2971 RMK A01 T00681006  RH  059%=      5-min Rain = 0
KAI1 190053Z 35030G37KT 07/M01 A2972 RMK A01 T00661006  RH  060%=      5-min Rain = 0
KAI1 190054Z 35034KT 07/M01 A2972 RMK A01 T00651006  RH  061%=      5-min Rain = 0
KAI1 190055Z 34030G35KT 06/M01 A2972 RMK A01 T00631006  RH  061%=      5-min Rain = 0
KAI1 190056Z 34031G37KT 06/M01 A2973 RMK A01 T00621005  RH  062%=      5-min Rain = 0
KAI1 190057Z 35028KT 06/M01 A2973 RMK A01 T00611005  RH  062%=      5-min Rain = 0
KAI1 190058Z 35030G36KT 06/M01 A2973 RMK A01 T00601005  RH  063%=      5-min Rain = 0
KAI1 190059Z 36032G37KT 06/M01 A2973 RMK A01 T00591005  RH  063%=      5-min Rain = 0
KAI1 190100Z 35031KT 06/M01 A2974 RMK A01 T00581006  RH  064%=      5-min Rain = 0
KAI1 190101Z 35033G38KT 06/M01 A2974 RMK A01 T00561006  RH  064%=      5-min Rain = 0
KAI1 190102Z 35028G36KT 06/M01 A2974 RMK A01 T00551006  RH  065%=      5-min Rain = 0
KAI1 190103Z 35028KT 05/M01 A2975 RMK A01 T00541006  RH  065%=      5-min Rain = 0
KAI1 190104Z 35031G36KT 05/M01 A2975 RMK A01 T00531006  RH  065%=      5-min Rain = 0
KAI1 190105Z 35025KT 05/M01 A2975 RMK A01 T00531007  RH  066%=      5-min Rain = 0
KAI1 190106Z 35028G34KT 05/M01 A2976 RMK A01 T00521007  RH  066%=      5-min Rain = 0
KAI1 190107Z 35024KT 05/M01 A2976 RMK A01 T00521007  RH  066%=      5-min Rain = 0
KAI1 190108Z 35025KT 05/M01 A2976 RMK A01 T00511007  RH  066%=      5-min Rain = 0
KAI1 190109Z 35031KT 05/M01 A2976 RMK A01 T00511007  RH  066%=      5-min Rain = 0
KAI1 190110Z 35027KT 05/M01 A2976 RMK A01 T00501008  RH  066%=      5-min Rain = 0
KAI1 190111Z 35028G33KT 05/M01 A2976 RMK A01 T00491008  RH  066%=      5-min Rain = 0
KAI1 190112Z 35027KT 05/M01 A2977 RMK A01 T00481008  RH  067%=      5-min Rain = 0
KAI1 190113Z 35028KT 05/M01 A2977 RMK A01 T00471009  RH  067%=      5-min Rain = 0
KAI1 190114Z 36028G34KT 05/M01 A2977 RMK A01 T00461009  RH  067%=      5-min Rain = 0
KAI1 190115Z 35029G34KT 05/M01 A2977 RMK A01 T00451009  RH  068%=      5-min Rain = 0
KAI1 190116Z 35027KT 04/M01 A2977 RMK A01 T00441010  RH  068%=      5-min Rain = 0
KAI1 190117Z 35025G30KT 04/M01 A2978 RMK A01 T00441009  RH  068%=      5-min Rain = 0
KAI1 190118Z 35027G33KT 04/M01 A2978 RMK A01 T00431010  RH  069%=      5-min Rain = 0
KAI1 190119Z 35025G31KT 04/M01 A2978 RMK A01 T00431009  RH  069%=      5-min Rain = 0
KAI1 190120Z 35024G31KT 04/M01 A2978 RMK A01 T00421010  RH  069%=      5-min Rain = 0
KAI1 190121Z 35026G31KT 04/M01 A2978 RMK A01 T00421009  RH  069%=      5-min Rain = 0
KAI1 190122Z 35030G36KT 04/M01 A2978 RMK A01 T00421009  RH  069%=      5-min Rain = 0
KAI1 190123Z 34031KT 04/M01 A2978 RMK A01 T00421009  RH  069%=      5-min Rain = 0
KAI1 190124Z 35025G30KT 04/M01 A2978 RMK A01 T00421009  RH  069%=      5-min Rain = 0
KAI1 190125Z 35029G35KT 04/M01 A2978 RMK A01 T00421010  RH  069%=      5-min Rain = 0
KAI1 190126Z 34030KT 04/M01 A2978 RMK A01 T00421010  RH  069%=      5-min Rain = 0
KAI1 190127Z 35027G32KT 04/M01 A2978 RMK A01 T00421010  RH  069%=      5-min Rain = 0
KAI1 190128Z 36025KT 04/M01 A2979 RMK A01 T00411010  RH  069%=      5-min Rain = 0
KAI1 190129Z 35027G35KT 04/M01 A2979 RMK A01 T00401012  RH  069%=      5-min Rain = 0
KAI1 190130Z 36024G33KT 04/M01 A2979 RMK A01 T00391012  RH  069%=      5-min Rain = 0
KAI1 190131Z 35030G36KT 04/M01 A2979 RMK A01 T00381013  RH  070%=      5-min Rain = 0
KAI1 190132Z 35031KT 04/M01 A2979 RMK A01 T00381012  RH  070%=      5-min Rain = 0
KAI1 190133Z 35030G35KT 04/M01 A2979 RMK A01 T00381012  RH  070%=      5-min Rain = 0
KAI1 190134Z 35027KT 04/M01 A298 RMK A01 T00381012  RH  070%=      5-min Rain = 0
KAI1 190135Z 35030G35KT 04/M01 A298 RMK A01 T00371012  RH  070%=      5-min Rain = 0
KAI1 190136Z 35030KT 04/M01 A298 RMK A01 T00371012  RH  070%=      5-min Rain = 0
KAI1 190137Z 35026G31KT 04/M01 A298 RMK A01 T00371012  RH  070%=      5-min Rain = 0
KAI1 190138Z 35027G33KT 04/M01 A298 RMK A01 T00371012  RH  070%=      5-min Rain = 0
KAI1 190139Z 35023KT 04/M01 A298 RMK A01 T00371012  RH  071%=      5-min Rain = 0
KAI1 190140Z 35027G32KT 04/M01 A298 RMK A01 T00361012  RH  071%=      5-min Rain = 0
KAI1 190141Z 35029G34KT 04/M01 A298 RMK A01 T00361012  RH  071%=      5-min Rain = 0
KAI1 190142Z 35026KT 04/M01 A298 RMK A01 T00371011  RH  071%=      5-min Rain = 0
KAI1 190143Z 35024KT 04/M01 A2981 RMK A01 T00381011  RH  071%=      5-min Rain = 0
KAI1 190144Z 35028KT 04/M01 A2981 RMK A01 T00381011  RH  070%=      5-min Rain = 0
KAI1 190145Z 35026KT 04/M01 A2981 RMK A01 T00391010  RH  070%=      5-min Rain = 0
KAI1 190146Z 35025G31KT 04/M01 A2981 RMK A01 T00391010  RH  070%=      5-min Rain = 0
KAI1 190147Z 35027G33KT 04/M01 A2981 RMK A01 T00391010  RH  070%=      5-min Rain = 0
KAI1 190148Z 34031G36KT 04/M01 A2981 RMK A01 T00401010  RH  070%=      5-min Rain = 0
KAI1 190149Z 34026G35KT 04/M01 A2982 RMK A01 T00401009  RH  070%=      5-min Rain = 0
KAI1 190150Z 34027G32KT 04/M01 A2982 RMK A01 T00411009  RH  070%=      5-min Rain = 0
KAI1 190151Z 34028KT 04/M01 A2982 RMK A01 T00411009  RH  070%=      5-min Rain = 0
KAI1 190152Z 34030G35KT 04/M01 A2982 RMK A01 T00411009  RH  070%=      5-min Rain = 0
KAI1 190153Z 34030G36KT 04/M01 A2982 RMK A01 T00421009  RH  070%=      5-min Rain = 0
KAI1 190154Z 34032G39KT 04/M01 A2982 RMK A01 T00421009  RH  070%=      5-min Rain = 0
KAI1 190155Z 34029G34KT 04/M01 A2982 RMK A01 T00421009  RH  069%=      5-min Rain = 0
KAI1 190156Z 34027G35KT 04/M01 A2983 RMK A01 T00421009  RH  070%=      5-min Rain = 0
KAI1 190157Z 34030G37KT 04/M01 A2982 RMK A01 T00421009  RH  070%=      5-min Rain = 0
KAI1 190158Z 34031G37KT 04/M01 A2982 RMK A01 T00411009  RH  070%=      5-min Rain = 0
KAI1 190159Z 33030KT 04/M01 A2982 RMK A01 T00411009  RH  070%=      5-min Rain = 0
KAI1 190200Z 34033KT 04/M01 A2982 RMK A01 T00411009  RH  070%=      5-min Rain = 0
KAI1 190201Z 34030G35KT 04/M01 A2983 RMK A01 T00411009  RH  070%=      5-min Rain = 0
KAI1 190202Z 34030KT 04/M01 A2983 RMK A01 T00411009  RH  070%=      5-min Rain = 0
KAI1 190203Z 34031KT 04/M01 A2983 RMK A01 T00411009  RH  070%=      5-min Rain = 0
KAI1 190204Z 34031G36KT 04/M01 A2983 RMK A01 T00401009  RH  070%=      5-min Rain = 0
KAI1 190205Z 34031G36KT 04/M01 A2983 RMK A01 T00401009  RH  070%=      5-min Rain = 0
KAI1 190206Z 35033KT 04/M01 A2983 RMK A01 T00401010  RH  070%=      5-min Rain = 0
KAI1 190207Z 34031KT 04/M01 A2984 RMK A01 T00401010  RH  070%=      5-min Rain = 0
KAI1 190208Z 34029G34KT 04/M01 A2984 RMK A01 T00401010  RH  070%=      5-min Rain = 0
KAI1 190209Z 34027G32KT 04/M01 A2984 RMK A01 T00391010  RH  070%=      5-min Rain = 0
KAI1 190210Z 34029G36KT 04/M01 A2984 RMK A01 T00401010  RH  070%=      5-min Rain = 0
KAI1 190211Z 34029KT 04/M01 A2984 RMK A01 T00391010  RH  070%=      5-min Rain = 0
KAI1 190212Z 34031KT 04/M01 A2984 RMK A01 T00391010  RH  070%=      5-min Rain = 0
KAI1 190213Z 34033KT 04/M01 A2984 RMK A01 T00381011  RH  070%=      5-min Rain = 0
KAI1 190214Z 34033KT 04/M01 A2984 RMK A01 T00381012  RH  070%=      5-min Rain = 0
KAI1 190215Z 34033G38KT 04/M01 A2984 RMK A01 T00371013  RH  070%=      5-min Rain = 0
KAI1 190216Z 34034KT 04/M01 A2985 RMK A01 T00371013  RH  070%=      5-min Rain = 0
KAI1 190217Z 34030KT 04/M01 A2984 RMK A01 T00361013  RH  070%=      5-min Rain = 0
KAI1 190218Z 35028G33KT 04/M01 A2985 RMK A01 T00361012  RH  071%=      5-min Rain = 0
KAI1 190219Z 34023G29KT 04/M01 A2985 RMK A01 T00351012  RH  071%=      5-min Rain = 0
KAI1 190220Z 35029G38KT 04/M01 A2985 RMK A01 T00351012  RH  071%=      5-min Rain = 0
KAI1 190221Z 34029KT 03/M01 A2985 RMK A01 T00341013  RH  071%=      5-min Rain = 0
KAI1 190222Z 34032G38KT 03/M01 A2985 RMK A01 T00341013  RH  071%=      5-min Rain = 0
KAI1 190223Z 34033G39KT 03/M02 A2985 RMK A01 T00321015  RH  071%=      5-min Rain = 0
KAI1 190224Z 34034KT 03/M02 A2985 RMK A01 T00311016  RH  071%=      5-min Rain = 0
KAI1 190225Z 34033KT 03/M02 A2986 RMK A01 T00311016  RH  071%=      5-min Rain = 0
KAI1 190226Z 34032G37KT 03/M02 A2986 RMK A01 T00301016  RH  072%=      5-min Rain = 0
KAI1 190227Z 34032G38KT 03/M02 A2986 RMK A01 T00291016  RH  072%=      5-min Rain = 0
KAI1 190228Z 34035G40KT 03/M02 A2986 RMK A01 T00291016  RH  072%=      5-min Rain = 0
KAI1 190229Z 34034G39KT 03/M02 A2986 RMK A01 T00281016  RH  072%=      5-min Rain = 0
KAI1 190230Z 34036G42KT 03/M02 A2986 RMK A01 T00281016  RH  073%=      5-min Rain = 0
KAI1 190231Z 34031G36KT 03/M02 A2986 RMK A01 T00281016  RH  073%=      5-min Rain = 0
KAI1 190232Z 34032G37KT 03/M02 A2986 RMK A01 T00271015  RH  073%=      5-min Rain = 0
KAI1 190233Z 34029G34KT 03/M02 A2986 RMK A01 T00271016  RH  073%=      5-min Rain = 0
KAI1 190234Z 34030KT 03/M02 A2986 RMK A01 T00271016  RH  073%=      5-min Rain = 0
KAI1 190235Z 35027G32KT 03/M02 A2987 RMK A01 T00271016  RH  073%=      5-min Rain = 0
KAI1 190236Z 35030G35KT 03/M02 A2987 RMK A01 T00271016  RH  073%=      5-min Rain = 0
KAI1 190237Z 34030KT 03/M02 A2987 RMK A01 T00271017  RH  073%=      5-min Rain = 0
KAI1 190238Z 34032G37KT 03/M02 A2987 RMK A01 T00261017  RH  073%=      5-min Rain = 0
KAI1 190239Z 34028G33KT 03/M02 A2987 RMK A01 T00261017  RH  073%=      5-min Rain = 0
KAI1 190240Z 34027G34KT 03/M02 A2988 RMK A01 T00261017  RH  074%=      5-min Rain = 0
KAI1 190241Z 34030KT 03/M02 A2988 RMK A01 T00261017  RH  073%=      5-min Rain = 0
KAI1 190242Z 35027G32KT 03/M02 A2988 RMK A01 T00251018  RH  073%=      5-min Rain = 0
KAI1 190243Z 35023G30KT 03/M02 A2988 RMK A01 T00251017  RH  073%=      5-min Rain = 0
KAI1 190244Z 34030G36KT 03/M02 A2988 RMK A01 T00251018  RH  073%=      5-min Rain = 0
KAI1 190245Z 35031G36KT 03/M02 A2988 RMK A01 T00251019  RH  072%=      5-min Rain = 0
KAI1 190246Z 35030KT 03/M02 A2988 RMK A01 T00251020  RH  072%=      5-min Rain = 0
KAI1 190247Z 34029KT 02/M02 A2988 RMK A01 T00241020  RH  072%=      5-min Rain = 0
KAI1 190248Z 34030KT 02/M02 A2988 RMK A01 T00241020  RH  072%=      5-min Rain = 0
KAI1 190249Z 35030G35KT 02/M02 A2989 RMK A01 T00241020  RH  072%=      5-min Rain = 0
KAI1 190250Z 35033KT 02/M02 A2988 RMK A01 T00241021  RH  072%=      5-min Rain = 0
KAI1 190251Z 35033KT 02/M02 A2989 RMK A01 T00241021  RH  072%=      5-min Rain = 0
KAI1 190252Z 35028G34KT 02/M02 A2989 RMK A01 T00241021  RH  072%=      5-min Rain = 0
KAI1 190253Z 35032G39KT 03/M02 A2989 RMK A01 T00251022  RH  071%=      5-min Rain = 0
KAI1 190254Z 35031G38KT 02/M02 A2989 RMK A01 T00241023  RH  071%=      5-min Rain = 0
KAI1 190255Z 35029G34KT 03/M02 A2989 RMK A01 T00251023  RH  071%=      5-min Rain = 0
KAI1 190256Z 35028G34KT 03/M02 A2989 RMK A01 T00251023  RH  071%=      5-min Rain = 0
KAI1 190257Z 35029G34KT 03/M02 A2989 RMK A01 T00251023  RH  070%=      5-min Rain = 0
KAI1 190258Z 36030G41KT 03/M02 A2989 RMK A01 T00251023  RH  070%=      5-min Rain = 0
KAI1 190259Z 36027G34KT 03/M02 A299 RMK A01 T00251024  RH  070%=      5-min Rain = 0
KAI1 190300Z 35031G37KT 03/M03 A299 RMK A01 T00251025  RH  069%=      5-min Rain = 0
KAI1 190301Z 35028G33KT 03/M03 A299 RMK A01 T00251026  RH  069%=      5-min Rain = 0
KAI1 190302Z 35031G36KT 03/M03 A299 RMK A01 T00251028  RH  068%=      5-min Rain = 0
KAI1 190303Z 35030G35KT 03/M03 A299 RMK A01 T00251029  RH  068%=      5-min Rain = 0
KAI1 190304Z 35028KT 03/M03 A299 RMK A01 T00251029  RH  068%=      5-min Rain = 0
KAI1 190305Z 34033KT 03/M03 A299 RMK A01 T00251029  RH  067%=      5-min Rain = 0
KAI1 190306Z 35032KT 03/M03 A2991 RMK A01 T00251030  RH  067%=      5-min Rain = 0
KAI1 190307Z 35030G35KT 02/M03 A2991 RMK A01 T00241031  RH  067%=      5-min Rain = 0
KAI1 190308Z 34029G36KT 02/M03 A2991 RMK A01 T00241030  RH  067%=      5-min Rain = 0
KAI1 190309Z 34032G39KT 02/M03 A299 RMK A01 T00241031  RH  067%=      5-min Rain = 0
KAI1 190310Z 35030G36KT 02/M03 A2991 RMK A01 T00241031  RH  067%=      5-min Rain = 0
KAI1 190311Z 35030G35KT 02/M03 A2991 RMK A01 T00231031  RH  067%=      5-min Rain = 0
KAI1 190312Z 35027G32KT 02/M03 A2991 RMK A01 T00241031  RH  067%=      5-min Rain = 0
KAI1 190313Z 35029KT 02/M03 A2991 RMK A01 T00231031  RH  067%=      5-min Rain = 0
KAI1 190314Z 34030G40KT 02/M03 A2991 RMK A01 T00231032  RH  067%=      5-min Rain = 0
KAI1 190315Z 35030G37KT 02/M03 A2991 RMK A01 T00231032  RH  067%=      5-min Rain = 0
KAI1 190316Z 35030G40KT 02/M03 A2992 RMK A01 T00231032  RH  067%=      5-min Rain = 0
KAI1 190317Z 35035G40KT 02/M03 A2992 RMK A01 T00231031  RH  067%=      5-min Rain = 0
KAI1 190318Z 35030G36KT 02/M03 A2992 RMK A01 T00221032  RH  068%=      5-min Rain = 0
KAI1 190319Z 35026G31KT 02/M03 A2992 RMK A01 T00221031  RH  068%=      5-min Rain = 0
KAI1 190320Z 35028G37KT 02/M03 A2992 RMK A01 T00221031  RH  068%=      5-min Rain = 0
KAI1 190321Z 35030G36KT 02/M03 A2992 RMK A01 T00221031  RH  068%=      5-min Rain = 0
KAI1 190322Z 35026KT 02/M03 A2992 RMK A01 T00221032  RH  068%=      5-min Rain = 0
KAI1 190323Z 35031G39KT 02/M03 A2992 RMK A01 T00221031  RH  068%=      5-min Rain = 0
KAI1 190324Z 35031G36KT 02/M03 A2992 RMK A01 T00221032  RH  068%=      5-min Rain = 0
KAI1 190325Z 35027G32KT 02/M03 A2992 RMK A01 T00221031  RH  068%=      5-min Rain = 0
KAI1 190326Z 34031KT 02/M03 A2992 RMK A01 T00221031  RH  068%=      5-min Rain = 0
KAI1 190327Z 34027G33KT 02/M03 A2992 RMK A01 T00221031  RH  068%=      5-min Rain = 0
KAI1 190328Z 35033G38KT 02/M03 A2992 RMK A01 T00221031  RH  068%=      5-min Rain = 0
KAI1 190329Z 35029G34KT 02/M03 A2992 RMK A01 T00221031  RH  068%=      5-min Rain = 0
KAI1 190330Z 35029G34KT 02/M03 A2992 RMK A01 T00221030  RH  068%=      5-min Rain = 0
KAI1 190331Z 35031KT 02/M03 A2992 RMK A01 T00221030  RH  069%=      5-min Rain = 0
KAI1 190332Z 35027G32KT 02/M03 A2992 RMK A01 T00221030  RH  069%=      5-min Rain = 0
KAI1 190333Z 35029KT 02/M03 A2993 RMK A01 T00221029  RH  069%=      5-min Rain = 0
KAI1 190334Z 35028KT 02/M03 A2992 RMK A01 T00221029  RH  069%=      5-min Rain = 0
KAI1 190335Z 35032KT 02/M03 A2993 RMK A01 T00221028  RH  069%=      5-min Rain = 0
KAI1 190336Z 34030KT 02/M03 A2992 RMK A01 T00221028  RH  069%=      5-min Rain = 0
KAI1 190337Z 34027G32KT 02/M03 A2993 RMK A01 T00221028  RH  070%=      5-min Rain = 0
KAI1 190338Z 34029G35KT 02/M03 A2993 RMK A01 T00221027  RH  070%=      5-min Rain = 0
KAI1 190339Z 34030G36KT 02/M03 A2993 RMK A01 T00221027  RH  070%=      5-min Rain = 0
KAI1 190340Z 34032G41KT 02/M03 A2993 RMK A01 T00221026  RH  071%=      5-min Rain = 0
KAI1 190341Z 34034G41KT 02/M03 A2993 RMK A01 T00211025  RH  071%=      5-min Rain = 0
KAI1 190342Z 34031G36KT 02/M03 A2993 RMK A01 T00201025  RH  072%=      5-min Rain = 0
KAI1 190343Z 34033G39KT 02/M03 A2993 RMK A01 T00201025  RH  072%=      5-min Rain = 0
KAI1 190344Z 34029G34KT 02/M03 A2993 RMK A01 T00201025  RH  072%=      5-min Rain = 0
KAI1 190345Z 34029G35KT 02/M03 A2993 RMK A01 T00201025  RH  072%=      5-min Rain = 0
KAI1 190346Z 34030KT 02/M03 A2993 RMK A01 T00201025  RH  072%=      5-min Rain = 0
KAI1 190347Z 34031KT 02/M03 A2993 RMK A01 T00191026  RH  072%=      5-min Rain = 0
KAI1 190348Z 34026G34KT 02/M03 A2994 RMK A01 T00191026  RH  072%=      5-min Rain = 0
KAI1 190349Z 34034G40KT 02/M03 A2993 RMK A01 T00191026  RH  072%=      5-min Rain = 0
KAI1 190350Z 34030G38KT 02/M03 A2993 RMK A01 T00191028  RH  071%=      5-min Rain = 0
KAI1 190351Z 34029G34KT 02/M03 A2994 RMK A01 T00181028  RH  071%=      5-min Rain = 0
KAI1 190352Z 34033KT 02/M03 A2994 RMK A01 T00181029  RH  071%=      5-min Rain = 0
KAI1 190353Z 34035KT 02/M03 A2994 RMK A01 T00181029  RH  071%=      5-min Rain = 0
KAI1 190354Z 34034KT 02/M03 A2994 RMK A01 T00181030  RH  071%=      5-min Rain = 0
KAI1 190355Z 34029G34KT 02/M03 A2994 RMK A01 T00171030  RH  071%=      5-min Rain = 0
KAI1 190356Z 34027G32KT 02/M03 A2994 RMK A01 T00171030  RH  071%=      5-min Rain = 0
KAI1 190357Z 34026G32KT 02/M03 A2994 RMK A01 T00171030  RH  071%=      5-min Rain = 0
KAI1 190358Z 34028G35KT 02/M03 A2994 RMK A01 T00171031  RH  071%=      5-min Rain = 0
KAI1 190359Z 34026G31KT 02/M03 A2994 RMK A01 T00171031  RH  070%=      5-min Rain = 0
KAI1 190400Z 34032G37KT 02/M03 A2994 RMK A01 T00171032  RH  070%=      5-min Rain = 0
KAI1 190401Z 34029G36KT 02/M03 A2995 RMK A01 T00161033  RH  070%=      5-min Rain = 0
KAI1 190402Z 34033G40KT 02/M03 A2994 RMK A01 T00161033  RH  070%=      5-min Rain = 0
KAI1 190403Z 34034KT 02/M03 A2994 RMK A01 T00151033  RH  070%=      5-min Rain = 0
KAI1 190404Z 34032KT 02/M03 A2995 RMK A01 T00151033  RH  070%=      5-min Rain = 0
KAI1 190405Z 34030KT 02/M03 A2995 RMK A01 T00151034  RH  070%=      5-min Rain = 0
KAI1 190406Z 34027G33KT 01/M03 A2995 RMK A01 T00141034  RH  070%=      5-min Rain = 0
KAI1 190407Z 34025G31KT 01/M03 A2995 RMK A01 T00141034  RH  070%=      5-min Rain = 0
KAI1 190408Z 34028KT 01/M03 A2995 RMK A01 T00141034  RH  070%=      5-min Rain = 0
KAI1 190409Z 34031G37KT 01/M03 A2995 RMK A01 T00141034  RH  070%=      5-min Rain = 0
KAI1 190410Z 34031G37KT 01/M04 A2995 RMK A01 T00141035  RH  070%=      5-min Rain = 0
KAI1 190411Z 34032G37KT 01/M03 A2995 RMK A01 T00141034  RH  070%=      5-min Rain = 0
KAI1 190412Z 34031G36KT 01/M03 A2995 RMK A01 T00141034  RH  070%=      5-min Rain = 0
KAI1 190413Z 35029G36KT 01/M03 A2995 RMK A01 T00141034  RH  070%=      5-min Rain = 0
KAI1 190414Z 35029G36KT 01/M04 A2995 RMK A01 T00141035  RH  070%=      5-min Rain = 0
KAI1 190415Z 34028KT 01/M04 A2995 RMK A01 T00141035  RH  070%=      5-min Rain = 0
KAI1 190416Z 34027G34KT 01/M03 A2995 RMK A01 T00141034  RH  070%=      5-min Rain = 0
KAI1 190417Z 34026KT 01/M04 A2995 RMK A01 T00141035  RH  070%=      5-min Rain = 0
KAI1 190418Z 35033G40KT 01/M04 A2995 RMK A01 T00131035  RH  070%=      5-min Rain = 0
KAI1 190419Z 35032KT 01/M04 A2996 RMK A01 T00141035  RH  070%=      5-min Rain = 0
KAI1 190420Z 35033G39KT 01/M04 A2996 RMK A01 T00141035  RH  070%=      5-min Rain = 0
KAI1 190421Z 35035KT 01/M04 A2996 RMK A01 T00141035  RH  070%=      5-min Rain = 0
KAI1 190422Z 35030G35KT 01/M04 A2996 RMK A01 T00141035  RH  070%=      5-min Rain = 0
KAI1 190423Z 35035G40KT 01/M04 A2996 RMK A01 T00141035  RH  070%=      5-min Rain = 0
KAI1 190424Z 35033G40KT 01/M04 A2996 RMK A01 T00141035  RH  070%=      5-min Rain = 0
KAI1 190425Z 34033G38KT 01/M04 A2996 RMK A01 T00141036  RH  070%=      5-min Rain = 0
KAI1 190426Z 34026G33KT 01/M04 A2996 RMK A01 T00131036  RH  069%=      5-min Rain = 0
KAI1 190427Z 34033G39KT 01/M04 A2996 RMK A01 T00131036  RH  070%=      5-min Rain = 0
KAI1 190428Z 34031G36KT 01/M04 A2996 RMK A01 T00141036  RH  069%=      5-min Rain = 0
KAI1 190429Z 34030G38KT 01/M04 A2996 RMK A01 T00131037  RH  069%=      5-min Rain = 0
KAI1 190430Z 34032G38KT 01/M04 A2996 RMK A01 T00131037  RH  069%=      5-min Rain = 0
KAI1 190431Z 34032KT 01/M04 A2996 RMK A01 T00131037  RH  069%=      5-min Rain = 0
KAI1 190432Z 34035G43KT 01/M04 A2996 RMK A01 T00131037  RH  069%=      5-min Rain = 0
KAI1 190433Z 34032KT 01/M04 A2996 RMK A01 T00131036  RH  070%=      5-min Rain = 0
KAI1 190434Z 34032KT 01/M04 A2997 RMK A01 T00131035  RH  070%=      5-min Rain = 0
KAI1 190435Z 34030G35KT 01/M04 A2997 RMK A01 T00121035  RH  071%=      5-min Rain = 0
KAI1 190436Z 34030G36KT 01/M03 A2997 RMK A01 T00121033  RH  072%=      5-min Rain = 0
KAI1 190437Z 35030G36KT 01/M03 A2997 RMK A01 T00111033  RH  072%=      5-min Rain = 0
KAI1 190438Z 34031G39KT 01/M03 A2997 RMK A01 T00111033  RH  073%=      5-min Rain = 0
KAI1 190439Z 35031KT 01/M03 A2997 RMK A01 T00101032  RH  073%=      5-min Rain = 0
KAI1 190440Z 35028G33KT 01/M03 A2998 RMK A01 T00091032  RH  074%=      5-min Rain = 0
KAI1 190441Z 35026G31KT 01/M03 A2998 RMK A01 T00091031  RH  075%=      5-min Rain = 0
KAI1 190442Z 35027G32KT 01/M03 A2998 RMK A01 T00081030  RH  075%=      5-min Rain = 0
KAI1 190443Z 35028KT 01/M03 A2998 RMK A01 T00081030  RH  075%=      5-min Rain = 0
KAI1 190444Z 35023KT 01/M03 A2998 RMK A01 T00081031  RH  075%=      5-min Rain = 0
KAI1 190445Z 35022G27KT 01/M03 A2998 RMK A01 T00081031  RH  075%=      5-min Rain = 0
KAI1 190446Z 35026G31KT 01/M03 A2999 RMK A01 T00091030  RH  075%=      5-min Rain = 0
KAI1 190447Z 35031G37KT 01/M03 A2998 RMK A01 T00091031  RH  075%=      5-min Rain = 0
KAI1 190448Z 36026G31KT 01/M03 A2999 RMK A01 T00091032  RH  074%=      5-min Rain = 0
KAI1 190449Z 35024KT 01/M03 A2999 RMK A01 T00091031  RH  074%=      5-min Rain = 0
KAI1 190450Z 35024KT 01/M03 A2999 RMK A01 T00091031  RH  074%=      5-min Rain = 0
KAI1 190451Z 35022KT 01/M03 A2999 RMK A01 T00091030  RH  075%=      5-min Rain = 0
KAI1 190452Z 34025G30KT 01/M03 A2999 RMK A01 T00091030  RH  075%=      5-min Rain = 0
KAI1 190453Z 35026KT 01/M03 A2999 RMK A01 T00091030  RH  075%=      5-min Rain = 0
KAI1 190454Z 35025KT 01/M03 A2999 RMK A01 T00091030  RH  075%=      5-min Rain = 0
KAI1 190455Z 35028G33KT 01/M03 A2999 RMK A01 T00091030  RH  075%=      5-min Rain = 0
KAI1 190456Z 34026KT 01/M03 A2999 RMK A01 T00091030  RH  075%=      5-min Rain = 0
KAI1 190457Z 34027KT 01/M03 A2999 RMK A01 T00091029  RH  076%=      5-min Rain = 0
KAI1 190458Z 35030G35KT 01/M03 A2999 RMK A01 T00091029  RH  076%=      5-min Rain = 0
KAI1 190459Z 35029G34KT 01/M03 A30 RMK A01 T00091029  RH  076%=      5-min Rain = 0
KAI1 190500Z 35027G32KT 01/M03 A30 RMK A01 T00091028  RH  076%=      5-min Rain = 0
KAI1 190501Z 35032G38KT 01/M03 A30 RMK A01 T00081029  RH  076%=      5-min Rain = 0
KAI1 190502Z 35029G35KT 01/M03 A30 RMK A01 T00091030  RH  075%=      5-min Rain = 0
KAI1 190503Z 35025KT 01/M03 A30 RMK A01 T00091030  RH  076%=      5-min Rain = 0
KAI1 190504Z 35033G39KT 01/M03 A30 RMK A01 T00091029  RH  076%=      5-min Rain = 0
KAI1 190505Z 35028G34KT 01/M03 A3001 RMK A01 T00091030  RH  075%=      5-min Rain = 0
KAI1 190506Z 35028G35KT 01/M03 A3001 RMK A01 T00091029  RH  076%=      5-min Rain = 0
KAI1 190507Z 34023G29KT 01/M03 A3001 RMK A01 T00091028  RH  076%=      5-min Rain = 0
KAI1 190508Z 34021G26KT 01/M03 A3001 RMK A01 T00081027  RH  077%=      5-min Rain = 0
KAI1 190509Z 35025KT 01/M03 A3001 RMK A01 T00081026  RH  078%=      5-min Rain = 0
KAI1 190510Z 35022G29KT 01/M03 A3001 RMK A01 T00071026  RH  078%=      5-min Rain = 0
KAI1 190511Z 35022G27KT 01/M03 A3001 RMK A01 T00071025  RH  079%=      5-min Rain = 0
KAI1 190512Z 35022G29KT 01/M02 A3001 RMK A01 T00061024  RH  080%=      5-min Rain = 0
KAI1 190513Z 34027G35KT 01/M03 A3001 RMK A01 T00061025  RH  080%=      5-min Rain = 0
KAI1 190514Z 34030G37KT 01/M03 A3001 RMK A01 T00061025  RH  080%=      5-min Rain = 0
KAI1 190515Z 35026G34KT 01/M03 A3001 RMK A01 T00061025  RH  080%=      5-min Rain = 0
KAI1 190516Z 34027G32KT 01/M03 A3001 RMK A01 T00051025  RH  081%=      5-min Rain = 0
KAI1 190517Z 34028KT 00/M03 A3001 RMK A01 T00041025  RH  081%=      5-min Rain = 0
KAI1 190518Z 34028G33KT 00/M02 A3001 RMK A01 T00041024  RH  081%=      5-min Rain = 0
KAI1 190519Z 35027G32KT 00/M02 A3002 RMK A01 T00041024  RH  082%=      5-min Rain = 0
KAI1 190520Z 35031G37KT 00/M03 A3002 RMK A01 T00031025  RH  081%=      5-min Rain = 0
KAI1 190521Z 35028G33KT 00/M03 A3002 RMK A01 T00031025  RH  081%=      5-min Rain = 0
KAI1 190522Z 35034G40KT 00/M03 A3002 RMK A01 T00031025  RH  081%=      5-min Rain = 0
KAI1 190523Z 35032G37KT 00/M03 A3002 RMK A01 T00031027  RH  081%=      5-min Rain = 0
KAI1 190524Z 35032G38KT 00/M03 A3002 RMK A01 T00031027  RH  081%=      5-min Rain = 0
KAI1 190525Z 35032G39KT 00/M03 A3002 RMK A01 T00031027  RH  080%=      5-min Rain = 0
KAI1 190526Z 35031G39KT 00/M03 A3002 RMK A01 T00021028  RH  080%=      5-min Rain = 0
KAI1 190527Z 35032G37KT 00/M03 A3003 RMK A01 T00021027  RH  080%=      5-min Rain = 0
KAI1 190528Z 36028G33KT 00/M03 A3003 RMK A01 T00021028  RH  081%=      5-min Rain = 0
KAI1 190529Z 36033G38KT 00/M03 A3003 RMK A01 T00011027  RH  082%=      5-min Rain = 0
KAI1 190530Z 35026KT 00/M03 A3003 RMK A01 T00011027  RH  082%=      5-min Rain = 0
KAI1 190531Z 36027G33KT 00/03 A3003 RMK A01 T00-00-27  RH  082%=      5-min Rain = 0
KAI1 190532Z 36031G36KT 00/03 A3003 RMK A01 T00-00-27  RH  082%=      5-min Rain = 0
KAI1 190533Z 35027G36KT 00/03 A3003 RMK A01 T00000-27  RH  082%=      5-min Rain = 0
KAI1 190534Z 35023G28KT 00/03 A3003 RMK A01 T00-00-27  RH  082%=      5-min Rain = 0
KAI1 190535Z 35024KT 00/03 A3003 RMK A01 T00000-26  RH  082%=      5-min Rain = 0
KAI1 190536Z 35027G33KT 00/03 A3003 RMK A01 T00-00-27  RH  082%=      5-min Rain = 0
KAI1 190537Z 35026G32KT 00/M03 A3003 RMK A01 T00011027  RH  082%=      5-min Rain = 0
KAI1 190538Z 36025KT 00/M03 A3003 RMK A01 T00011027  RH  082%=      5-min Rain = 0
KAI1 190539Z 35026G32KT 00/M03 A3003 RMK A01 T00011027  RH  082%=      5-min Rain = 0
KAI1 190540Z 35024G30KT 00/M03 A3003 RMK A01 T00011026  RH  082%=      5-min Rain = 0
KAI1 190541Z 35026G31KT 00/M03 A3003 RMK A01 T00021026  RH  082%=      5-min Rain = 0
KAI1 190542Z 35025G31KT 00/M03 A3003 RMK A01 T00011027  RH  081%=      5-min Rain = 0
KAI1 190543Z 35025G31KT 00/M03 A3004 RMK A01 T00021027  RH  081%=      5-min Rain = 0
KAI1 190544Z 35029KT 00/M03 A3004 RMK A01 T00021027  RH  081%=      5-min Rain = 0
KAI1 190545Z 35028KT 00/M03 A3004 RMK A01 T00021028  RH  081%=      5-min Rain = 0
KAI1 190546Z 35025KT 00/M03 A3004 RMK A01 T00021028  RH  081%=      5-min Rain = 0
KAI1 190547Z 35026KT 00/M03 A3004 RMK A01 T00021027  RH  081%=      5-min Rain = 0
KAI1 190548Z 35026G31KT 00/M03 A3004 RMK A01 T00021026  RH  081%=      5-min Rain = 0
KAI1 190549Z 35027KT 00/M03 A3004 RMK A01 T00021027  RH  081%=      5-min Rain = 0
KAI1 190550Z 35023G28KT 00/M03 A3004 RMK A01 T00021027  RH  081%=      5-min Rain = 0
KAI1 190551Z 35028G34KT 00/M03 A3004 RMK A01 T00021026  RH  081%=      5-min Rain = 0
KAI1 190552Z 35028G34KT 00/M03 A3004 RMK A01 T00021027  RH  081%=      5-min Rain = 0
KAI1 190553Z 35028G33KT 00/M03 A3004 RMK A01 T00021027  RH  081%=      5-min Rain = 0
KAI1 190554Z 35025KT 00/M03 A3004 RMK A01 T00021027  RH  081%=      5-min Rain = 0
KAI1 190555Z 35023KT 00/M03 A3004 RMK A01 T00021026  RH  081%=      5-min Rain = 0
KAI1 190556Z 35021KT 00/M03 A3004 RMK A01 T00021026  RH  082%=      5-min Rain = 0
KAI1 190557Z 34020KT 00/M03 A3005 RMK A01 T00021026  RH  082%=      5-min Rain = 0
KAI1 190558Z 35026KT 00/M03 A3005 RMK A01 T00011026  RH  082%=      5-min Rain = 0
KAI1 190559Z 35022G27KT 00/M03 A3005 RMK A01 T00011026  RH  082%=      5-min Rain = 0

Page generated in 0.0866 seconds.